Observation data for Palo Duro Canyon State Park Floor on 05/28/2019      Previous  Date       Current Mesonet Observations  Soil Data  Daily Summary Page  Observations in Plain Language
KPD2 280500Z 14012KT 25/19 A2969 RMK A01 T02520190  RH  069%=      5-min Rain = 0
KPD2 280501Z 14003KT 25/19 A2969 RMK A01 T02530190  RH  068%=      5-min Rain = 0
KPD2 280502Z 15004KT 25/19 A2969 RMK A01 T02540190  RH  068%=      5-min Rain = 0
KPD2 280503Z 16003KT 25/19 A2969 RMK A01 T02540191  RH  068%=      5-min Rain = 0
KPD2 280504Z 14002KT 25/19 A2969 RMK A01 T02540191  RH  068%=      5-min Rain = 0
KPD2 280505Z 16004KT 25/19 A2969 RMK A01 T02530191  RH  068%=      5-min Rain = 0
KPD2 280506Z 12006KT 25/19 A2969 RMK A01 T02530191  RH  069%=      5-min Rain = 0
KPD2 280507Z 13006KT 25/19 A2969 RMK A01 T02520191  RH  069%=      5-min Rain = 0
KPD2 280508Z 13010KT 25/19 A2969 RMK A01 T02520191  RH  069%=      5-min Rain = 0
KPD2 280509Z 14009G15KT 25/19 A2969 RMK A01 T02510191  RH  069%=      5-min Rain = 0
KPD2 280510Z 16007G12KT 25/19 A2969 RMK A01 T02510191  RH  069%=      5-min Rain = 0
KPD2 280511Z 12005KT 25/19 A2969 RMK A01 T02510191  RH  069%=      5-min Rain = 0
KPD2 280512Z 13008KT 25/19 A2969 RMK A01 T02520191  RH  069%=      5-min Rain = 0
KPD2 280513Z 13010G17KT 25/19 A2969 RMK A01 T02520191  RH  069%=      5-min Rain = 0
KPD2 280514Z 13008KT 25/19 A2969 RMK A01 T02510191  RH  069%=      5-min Rain = 0
KPD2 280515Z 14003KT 25/19 A2969 RMK A01 T02510191  RH  069%=      5-min Rain = 0
KPD2 280516Z 13005G10KT 25/19 A2969 RMK A01 T02510191  RH  069%=      5-min Rain = 0
KPD2 280517Z 16002KT 25/19 A2969 RMK A01 T02510190  RH  069%=      5-min Rain = 0
KPD2 280518Z 12004G10KT 25/19 A2969 RMK A01 T02510191  RH  069%=      5-min Rain = 0
KPD2 280519Z 13012KT 25/19 A2969 RMK A01 T02510191  RH  069%=      5-min Rain = 0
KPD2 280520Z 16008G13KT 25/19 A2969 RMK A01 T02510192  RH  069%=      5-min Rain = 0
KPD2 280521Z 14007G12KT 25/19 A2969 RMK A01 T02510191  RH  069%=      5-min Rain = 0
KPD2 280522Z 14010G19KT 25/19 A2969 RMK A01 T02510192  RH  070%=      5-min Rain = 0
KPD2 280523Z 13006G12KT 25/19 A2969 RMK A01 T02500191  RH  070%=      5-min Rain = 0
KPD2 280524Z 12009G16KT 25/19 A2968 RMK A01 T02500191  RH  070%=      5-min Rain = 0
KPD2 280525Z 14009G15KT 25/19 A2968 RMK A01 T02500192  RH  070%=      5-min Rain = 0
KPD2 280526Z 13009KT 25/19 A2969 RMK A01 T02490192  RH  070%=      5-min Rain = 0
KPD2 280527Z 15004KT 25/19 A2969 RMK A01 T02490191  RH  070%=      5-min Rain = 0
KPD2 280528Z 15005KT 25/19 A2969 RMK A01 T02480192  RH  071%=      5-min Rain = 0
KPD2 280529Z 14008KT 25/19 A2969 RMK A01 T02480192  RH  071%=      5-min Rain = 0
KPD2 280530Z 13006KT 25/19 A2969 RMK A01 T02480191  RH  071%=      5-min Rain = 0
KPD2 280531Z 18004KT 25/19 A2969 RMK A01 T02480191  RH  071%=      5-min Rain = 0
KPD2 280532Z 13007G12KT 25/19 A2969 RMK A01 T02480191  RH  071%=      5-min Rain = 0
KPD2 280533Z 13006KT 25/19 A2969 RMK A01 T02470191  RH  071%=      5-min Rain = 0
KPD2 280534Z 14006KT 25/19 A2969 RMK A01 T02470191  RH  071%=      5-min Rain = 0
KPD2 280535Z 13006G12KT 25/19 A2969 RMK A01 T02470191  RH  071%=      5-min Rain = 0
KPD2 280536Z 13006KT 25/19 A2969 RMK A01 T02470191  RH  071%=      5-min Rain = 0
KPD2 280537Z 15005KT 25/19 A2969 RMK A01 T02470192  RH  071%=      5-min Rain = 0
KPD2 280538Z 15006KT 25/19 A2969 RMK A01 T02470191  RH  071%=      5-min Rain = 0
KPD2 280539Z 18004KT 25/19 A2969 RMK A01 T02470191  RH  071%=      5-min Rain = 0
KPD2 280540Z 14011KT 25/19 A2969 RMK A01 T02470191  RH  071%=      5-min Rain = 0
KPD2 280541Z 14009KT 25/19 A2969 RMK A01 T02470191  RH  071%=      5-min Rain = 0
KPD2 280542Z 14006KT 25/19 A2969 RMK A01 T02470191  RH  071%=      5-min Rain = 0
KPD2 280543Z 17002KT 25/19 A2969 RMK A01 T02470191  RH  071%=      5-min Rain = 0
KPD2 280544Z 20003KT 25/19 A2969 RMK A01 T02470191  RH  071%=      5-min Rain = 0
KPD2 280545Z 17003KT 25/19 A2969 RMK A01 T02460191  RH  071%=      5-min Rain = 0
KPD2 280546Z 15008G13KT 25/19 A2969 RMK A01 T02460191  RH  071%=      5-min Rain = 0
KPD2 280547Z 14006KT 25/19 A2969 RMK A01 T02460191  RH  071%=      5-min Rain = 0
KPD2 280548Z 12007KT 25/19 A2969 RMK A01 T02460191  RH  072%=      5-min Rain = 0
KPD2 280549Z 13005KT 25/19 A2969 RMK A01 T02460191  RH  072%=      5-min Rain = 0
KPD2 280550Z 15003KT 25/19 A2969 RMK A01 T02450191  RH  072%=      5-min Rain = 0
KPD2 280551Z 14006KT 25/19 A2969 RMK A01 T02450191  RH  072%=      5-min Rain = 0
KPD2 280552Z 18006G11KT 25/19 A2969 RMK A01 T02450191  RH  072%=      5-min Rain = 0
KPD2 280553Z 16006KT 25/19 A2969 RMK A01 T02450191  RH  072%=      5-min Rain = 0
KPD2 280554Z 14003KT 24/19 A2969 RMK A01 T02440191  RH  072%=      5-min Rain = 0
KPD2 280555Z 15003KT 25/19 A2969 RMK A01 T02450191  RH  072%=      5-min Rain = 0
KPD2 280556Z 24003KT 24/19 A2969 RMK A01 T02440191  RH  072%=      5-min Rain = 0
KPD2 280557Z 23004G9KT 24/19 A2969 RMK A01 T02440191  RH  072%=      5-min Rain = 0
KPD2 280558Z 17006KT 24/19 A2969 RMK A01 T02430191  RH  072%=      5-min Rain = 0
KPD2 280559Z 18002KT 24/19 A2969 RMK A01 T02430191  RH  073%=      5-min Rain = 0
KPD2 280600Z 09003KT 24/19 A2969 RMK A01 T02430191  RH  073%=      5-min Rain = 0
KPD2 280601Z 16007KT 24/19 A2969 RMK A01 T02420190  RH  073%=      5-min Rain = 0
KPD2 280602Z 21010KT 24/19 A2969 RMK A01 T02420190  RH  073%=      5-min Rain = 0
KPD2 280603Z 21006G11KT 24/19 A2969 RMK A01 T02430190  RH  072%=      5-min Rain = 0
KPD2 280604Z 13006KT 24/19 A2969 RMK A01 T02430190  RH  072%=      5-min Rain = 0
KPD2 280605Z 14004KT 24/19 A2969 RMK A01 T02430191  RH  072%=      5-min Rain = 0
KPD2 280606Z 15006KT 24/19 A2969 RMK A01 T02430191  RH  073%=      5-min Rain = 0
KPD2 280607Z 19004KT 24/19 A2969 RMK A01 T02430190  RH  072%=      5-min Rain = 0
KPD2 280608Z 17006KT 24/19 A2969 RMK A01 T02430190  RH  072%=      5-min Rain = 0
KPD2 280609Z 15003KT 24/19 A2969 RMK A01 T02430190  RH  072%=      5-min Rain = 0
KPD2 280610Z 22006G11KT 24/19 A2969 RMK A01 T02430190  RH  072%=      5-min Rain = 0
KPD2 280611Z 18007KT 24/19 A297 RMK A01 T02430190  RH  072%=      5-min Rain = 0
KPD2 280612Z 19004KT 24/19 A2969 RMK A01 T02430190  RH  072%=      5-min Rain = 0
KPD2 280613Z 26007KT 24/19 A2969 RMK A01 T02430189  RH  072%=      5-min Rain = 0
KPD2 280614Z 17004KT 24/19 A2969 RMK A01 T02430189  RH  072%=      5-min Rain = 0
KPD2 280615Z 20002KT 24/19 A2969 RMK A01 T02430190  RH  072%=      5-min Rain = 0
KPD2 280616Z 25005G10KT 24/19 A2969 RMK A01 T02430190  RH  072%=      5-min Rain = 0
KPD2 280617Z 28002KT 24/19 A2969 RMK A01 T02430190  RH  072%=      5-min Rain = 0
KPD2 280618Z 12002KT 24/19 A2969 RMK A01 T02420190  RH  072%=      5-min Rain = 0
KPD2 280619Z 15002G7KT 24/19 A2969 RMK A01 T02420190  RH  073%=      5-min Rain = 0
KPD2 280620Z 14005G12KT 24/19 A2969 RMK A01 T02420190  RH  073%=      5-min Rain = 0
KPD2 280621Z 14005KT 24/19 A2969 RMK A01 T02420190  RH  073%=      5-min Rain = 0
KPD2 280622Z 19006KT 24/19 A2969 RMK A01 T02420189  RH  073%=      5-min Rain = 0
KPD2 280623Z 26007KT 24/19 A2969 RMK A01 T02420189  RH  072%=      5-min Rain = 0
KPD2 280624Z 24004KT 24/19 A2969 RMK A01 T02420189  RH  072%=      5-min Rain = 0
KPD2 280625Z 20004KT 24/19 A2969 RMK A01 T02420189  RH  073%=      5-min Rain = 0
KPD2 280626Z 16002KT 24/19 A2969 RMK A01 T02410189  RH  073%=      5-min Rain = 0
KPD2 280627Z 23005KT 24/19 A2969 RMK A01 T02410189  RH  073%=      5-min Rain = 0
KPD2 280628Z 19003G8KT 24/19 A2969 RMK A01 T02410189  RH  073%=      5-min Rain = 0
KPD2 280629Z 15006KT 24/19 A2969 RMK A01 T02410190  RH  073%=      5-min Rain = 0
KPD2 280630Z 19005KT 24/19 A297 RMK A01 T02410189  RH  073%=      5-min Rain = 0
KPD2 280631Z 19005G10KT 24/19 A297 RMK A01 T02420189  RH  072%=      5-min Rain = 0
KPD2 280632Z 21007KT 24/19 A297 RMK A01 T02420189  RH  072%=      5-min Rain = 0
KPD2 280633Z 26005G11KT 24/19 A297 RMK A01 T02420189  RH  072%=      5-min Rain = 0
KPD2 280634Z 24005KT 24/19 A2969 RMK A01 T02420189  RH  072%=      5-min Rain = 0
KPD2 280635Z 19005KT 24/19 A297 RMK A01 T02420190  RH  072%=      5-min Rain = 0
KPD2 280636Z 17004KT 24/19 A297 RMK A01 T02420189  RH  073%=      5-min Rain = 0
KPD2 280637Z 16003KT 24/19 A297 RMK A01 T02410189  RH  072%=      5-min Rain = 0
KPD2 280638Z 13002KT 24/19 A2969 RMK A01 T02420189  RH  072%=      5-min Rain = 0
KPD2 280639Z 24006G11KT 24/19 A2969 RMK A01 T02420189  RH  072%=      5-min Rain = 0
KPD2 280640Z 21003KT 24/19 A2969 RMK A01 T02420189  RH  072%=      5-min Rain = 0
KPD2 280641Z 11004KT 24/19 A2969 RMK A01 T02420189  RH  072%=      5-min Rain = 0
KPD2 280642Z 11002KT 24/19 A2969 RMK A01 T02410189  RH  073%=      5-min Rain = 0
KPD2 280643Z 18003KT 24/19 A2969 RMK A01 T02400189  RH  073%=      5-min Rain = 0
KPD2 280644Z 08002KT 24/19 A2969 RMK A01 T02400189  RH  073%=      5-min Rain = 0
KPD2 280645Z 17001KT 24/19 A2969 RMK A01 T02390189  RH  074%=      5-min Rain = 0
KPD2 280646Z 19008KT 24/19 A2969 RMK A01 T02390189  RH  074%=      5-min Rain = 0
KPD2 280647Z 17004KT 24/19 A2969 RMK A01 T02390189  RH  073%=      5-min Rain = 0
KPD2 280648Z 24003KT 24/19 A2969 RMK A01 T02400189  RH  073%=      5-min Rain = 0
KPD2 280649Z 20001KT 24/19 A2969 RMK A01 T02400189  RH  073%=      5-min Rain = 0
KPD2 280650Z 22003KT 24/19 A2969 RMK A01 T02410189  RH  073%=      5-min Rain = 0
KPD2 280651Z 23006G12KT 24/19 A2969 RMK A01 T02400189  RH  073%=      5-min Rain = 0
KPD2 280652Z 23005KT 24/19 A2969 RMK A01 T02400189  RH  073%=      5-min Rain = 0
KPD2 280653Z 17003KT 24/19 A2969 RMK A01 T02400189  RH  073%=      5-min Rain = 0
KPD2 280654Z 15004KT 24/19 A2969 RMK A01 T02400189  RH  073%=      5-min Rain = 0
KPD2 280655Z 29002KT 24/19 A2969 RMK A01 T02400189  RH  073%=      5-min Rain = 0
KPD2 280656Z 24002KT 24/19 A2969 RMK A01 T02400189  RH  073%=      5-min Rain = 0
KPD2 280657Z 15002KT 24/19 A2969 RMK A01 T02390189  RH  073%=      5-min Rain = 0
KPD2 280658Z 24002KT 24/19 A2969 RMK A01 T02390189  RH  074%=      5-min Rain = 0
KPD2 280659Z 27003KT 24/19 A2969 RMK A01 T02380189  RH  074%=      5-min Rain = 0
KPD2 280700Z 30002KT 24/19 A2969 RMK A01 T02380188  RH  074%=      5-min Rain = 0
KPD2 280701Z 26005KT 24/19 A2969 RMK A01 T02380188  RH  074%=      5-min Rain = 0
KPD2 280702Z 26004KT 24/19 A297 RMK A01 T02370188  RH  074%=      5-min Rain = 0
KPD2 280703Z 26003KT 24/19 A297 RMK A01 T02370188  RH  074%=      5-min Rain = 0
KPD2 280704Z 27003G9KT 24/19 A297 RMK A01 T02360188  RH  074%=      5-min Rain = 0
KPD2 280705Z 28007KT 24/19 A297 RMK A01 T02360189  RH  075%=      5-min Rain = 0
KPD2 280706Z 26008KT 24/19 A297 RMK A01 T02360189  RH  075%=      5-min Rain = 0
KPD2 280707Z 25009KT 24/19 A2971 RMK A01 T02360188  RH  075%=      5-min Rain = 0
KPD2 280708Z 24006KT 24/19 A2971 RMK A01 T02350188  RH  075%=      5-min Rain = 0
KPD2 280709Z 28003KT 24/19 A2971 RMK A01 T02350188  RH  075%=      5-min Rain = 0
KPD2 280710Z 32003KT 24/19 A297 RMK A01 T02350189  RH  075%=      5-min Rain = 0
KPD2 280711Z 31003KT 24/19 A297 RMK A01 T02350189  RH  075%=      5-min Rain = 0
KPD2 280712Z 20003KT 23/19 A297 RMK A01 T02340188  RH  076%=      5-min Rain = 0
KPD2 280713Z 18004KT 23/19 A297 RMK A01 T02340188  RH  075%=      5-min Rain = 0
KPD2 280714Z 22002KT 23/19 A297 RMK A01 T02330187  RH  075%=      5-min Rain = 0
KPD2 280715Z 31001KT 23/19 A297 RMK A01 T02330188  RH  075%=      5-min Rain = 0
KPD2 280716Z 12000KT 23/19 A297 RMK A01 T02330188  RH  076%=      5-min Rain = 0
KPD2 280717Z 32003KT 23/19 A297 RMK A01 T02320187  RH  076%=      5-min Rain = 0
KPD2 280718Z 27004KT 23/19 A297 RMK A01 T02320187  RH  076%=      5-min Rain = 0
KPD2 280719Z 27004KT 23/19 A297 RMK A01 T02310187  RH  076%=      5-min Rain = 0
KPD2 280720Z 27003KT 23/19 A297 RMK A01 T02310188  RH  076%=      5-min Rain = 0
KPD2 280721Z 31002KT 23/19 A297 RMK A01 T02310188  RH  077%=      5-min Rain = 0
KPD2 280722Z 26003KT 23/19 A297 RMK A01 T02300188  RH  077%=      5-min Rain = 0
KPD2 280723Z 19002KT 23/19 A297 RMK A01 T02300188  RH  077%=      5-min Rain = 0
KPD2 280724Z 22002KT 23/19 A297 RMK A01 T02290188  RH  077%=      5-min Rain = 0
KPD2 280725Z 20002KT 23/19 A297 RMK A01 T02290188  RH  077%=      5-min Rain = 0
KPD2 280726Z 26002KT 23/19 A297 RMK A01 T02290187  RH  077%=      5-min Rain = 0
KPD2 280727Z 21002KT 23/19 A297 RMK A01 T02290187  RH  077%=      5-min Rain = 0
KPD2 280728Z 23003KT 23/19 A297 RMK A01 T02290187  RH  077%=      5-min Rain = 0
KPD2 280729Z 27001KT 23/19 A297 RMK A01 T02290187  RH  077%=      5-min Rain = 0
KPD2 280730Z 29001KT 23/19 A297 RMK A01 T02280187  RH  078%=      5-min Rain = 0
KPD2 280731Z 06002KT 23/19 A297 RMK A01 T02280187  RH  078%=      5-min Rain = 0
KPD2 280732Z 29002KT 23/19 A297 RMK A01 T02270187  RH  078%=      5-min Rain = 0
KPD2 280733Z 20001KT 23/19 A297 RMK A01 T02260187  RH  079%=      5-min Rain = 0
KPD2 280734Z 09001KT 23/19 A297 RMK A01 T02260187  RH  079%=      5-min Rain = 0
KPD2 280735Z 16001KT 23/19 A297 RMK A01 T02260187  RH  079%=      5-min Rain = 0
KPD2 280736Z 16002KT 23/19 A297 RMK A01 T02260188  RH  079%=      5-min Rain = 0
KPD2 280737Z 27002G7KT 23/19 A297 RMK A01 T02260188  RH  079%=      5-min Rain = 0
KPD2 280738Z 29005KT 23/19 A297 RMK A01 T02270188  RH  078%=      5-min Rain = 0
KPD2 280739Z 27003KT 23/19 A297 RMK A01 T02280188  RH  078%=      5-min Rain = 0
KPD2 280740Z 31002KT 23/19 A297 RMK A01 T02290188  RH  078%=      5-min Rain = 0
KPD2 280741Z 23001KT 23/19 A297 RMK A01 T02300188  RH  077%=      5-min Rain = 0
KPD2 280742Z 05000KT 23/19 A297 RMK A01 T02300188  RH  077%=      5-min Rain = 0
KPD2 280743Z 13001KT 23/19 A297 RMK A01 T02300188  RH  077%=      5-min Rain = 0
KPD2 280744Z 13003KT 23/19 A297 RMK A01 T02300188  RH  077%=      5-min Rain = 0
KPD2 280745Z 05002KT 23/19 A297 RMK A01 T02290188  RH  078%=      5-min Rain = 0
KPD2 280746Z 00001KT 23/19 A297 RMK A01 T02290188  RH  078%=      5-min Rain = 0
KPD2 280747Z 28001KT 23/19 A297 RMK A01 T02290188  RH  078%=      5-min Rain = 0
KPD2 280748Z 25003KT 23/19 A297 RMK A01 T02280188  RH  078%=      5-min Rain = 0
KPD2 280749Z 25005KT 23/19 A297 RMK A01 T02280188  RH  078%=      5-min Rain = 0
KPD2 280750Z 27003KT 23/19 A297 RMK A01 T02280188  RH  078%=      5-min Rain = 0
KPD2 280751Z 28001KT 23/19 A297 RMK A01 T02280188  RH  078%=      5-min Rain = 0
KPD2 280752Z 30003KT 23/19 A297 RMK A01 T02280188  RH  078%=      5-min Rain = 0
KPD2 280753Z 06002KT 23/19 A297 RMK A01 T02290188  RH  078%=      5-min Rain = 0
KPD2 280754Z 06002KT 23/19 A297 RMK A01 T02290188  RH  078%=      5-min Rain = 0
KPD2 280755Z 05000KT 23/19 A297 RMK A01 T02280188  RH  078%=      5-min Rain = 0
KPD2 280756Z 26001KT 23/19 A297 RMK A01 T02270188  RH  079%=      5-min Rain = 0
KPD2 280757Z 13003KT 23/19 A2969 RMK A01 T02280189  RH  079%=      5-min Rain = 0
KPD2 280758Z 18003KT 23/19 A2969 RMK A01 T02280189  RH  079%=      5-min Rain = 0
KPD2 280759Z 20000KT 23/19 A2969 RMK A01 T02280189  RH  078%=      5-min Rain = 0
KPD2 280800Z 11002KT 23/19 A2969 RMK A01 T02290189  RH  078%=      5-min Rain = 0
KPD2 280801Z 13002KT 23/19 A2969 RMK A01 T02290189  RH  078%=      5-min Rain = 0
KPD2 280802Z 18003KT 23/19 A2969 RMK A01 T02290189  RH  078%=      5-min Rain = 0
KPD2 280803Z 16003KT 23/19 A2969 RMK A01 T02290189  RH  078%=      5-min Rain = 0
KPD2 280804Z 20005G10KT 23/19 A2969 RMK A01 T02290189  RH  078%=      5-min Rain = 0
KPD2 280805Z 17004KT 23/19 A2969 RMK A01 T02300190  RH  078%=      5-min Rain = 0
KPD2 280806Z 17004KT 23/19 A2969 RMK A01 T02300190  RH  078%=      5-min Rain = 0
KPD2 280807Z 20002KT 23/19 A2969 RMK A01 T02300190  RH  078%=      5-min Rain = 0
KPD2 280808Z 22001KT 23/19 A2969 RMK A01 T02300189  RH  078%=      5-min Rain = 0
KPD2 280809Z 19003KT 23/19 A2969 RMK A01 T02300190  RH  078%=      5-min Rain = 0
KPD2 280810Z 22001KT 23/19 A2969 RMK A01 T02300190  RH  078%=      5-min Rain = 0
KPD2 280811Z 20006KT 23/19 A2969 RMK A01 T02310190  RH  078%=      5-min Rain = 0
KPD2 280812Z 16003KT 23/19 A2969 RMK A01 T02300190  RH  078%=      5-min Rain = 0
KPD2 280813Z 18005KT 23/19 A2969 RMK A01 T02300190  RH  078%=      5-min Rain = 0
KPD2 280814Z 23005KT 23/19 A2969 RMK A01 T02300190  RH  078%=      5-min Rain = 0
KPD2 280815Z 17002KT 23/19 A2969 RMK A01 T02300189  RH  078%=      5-min Rain = 0
KPD2 280816Z 17003KT 23/19 A2969 RMK A01 T02300190  RH  078%=      5-min Rain = 0
KPD2 280817Z 17002KT 23/19 A2969 RMK A01 T02300189  RH  078%=      5-min Rain = 0
KPD2 280818Z 15007KT 23/19 A2969 RMK A01 T02300190  RH  078%=      5-min Rain = 0
KPD2 280819Z 11003KT 23/19 A2968 RMK A01 T02290189  RH  078%=      5-min Rain = 0
KPD2 280820Z 21002KT 23/19 A2968 RMK A01 T02290190  RH  078%=      5-min Rain = 0
KPD2 280821Z 15003KT 23/19 A2968 RMK A01 T02290189  RH  078%=      5-min Rain = 0
KPD2 280822Z 22005KT 23/19 A2969 RMK A01 T02290189  RH  078%=      5-min Rain = 0
KPD2 280823Z 20006KT 23/19 A2969 RMK A01 T02290189  RH  078%=      5-min Rain = 0
KPD2 280824Z 14004KT 23/19 A2968 RMK A01 T02290188  RH  078%=      5-min Rain = 0
KPD2 280825Z 14003KT 23/19 A2968 RMK A01 T02310189  RH  077%=      5-min Rain = 0
KPD2 280826Z 13005KT 23/19 A2968 RMK A01 T02310189  RH  077%=      5-min Rain = 0
KPD2 280827Z 19004KT 23/19 A2968 RMK A01 T02300189  RH  078%=      5-min Rain = 0
KPD2 280828Z 22004KT 23/19 A2968 RMK A01 T02300189  RH  078%=      5-min Rain = 0
KPD2 280829Z 10003KT 23/19 A2968 RMK A01 T02300189  RH  078%=      5-min Rain = 0
KPD2 280830Z 12004KT 23/19 A2968 RMK A01 T02280188  RH  078%=      5-min Rain = 0
KPD2 280831Z 12002KT 23/19 A2968 RMK A01 T02270188  RH  079%=      5-min Rain = 0
KPD2 280832Z 18003KT 23/19 A2968 RMK A01 T02270189  RH  079%=      5-min Rain = 0
KPD2 280833Z 14001KT 23/19 A2968 RMK A01 T02260188  RH  079%=      5-min Rain = 0
KPD2 280834Z 14001KT 23/19 A2968 RMK A01 T02250188  RH  079%=      5-min Rain = 0
KPD2 280835Z 12002KT 23/19 A2968 RMK A01 T02250188  RH  080%=      5-min Rain = 0
KPD2 280836Z 15001KT 23/19 A2968 RMK A01 T02250188  RH  080%=      5-min Rain = 0
KPD2 280837Z 22001KT 22/19 A2968 RMK A01 T02240188  RH  080%=      5-min Rain = 0
KPD2 280838Z 18001KT 23/19 A2968 RMK A01 T02250188  RH  080%=      5-min Rain = 0
KPD2 280839Z 16005KT 22/19 A2968 RMK A01 T02240187  RH  080%=      5-min Rain = 0
KPD2 280840Z 16005KT 23/19 A2968 RMK A01 T02260188  RH  079%=      5-min Rain = 0
KPD2 280841Z 18006KT 23/19 A2968 RMK A01 T02270188  RH  078%=      5-min Rain = 0
KPD2 280842Z 20006KT 23/19 A2968 RMK A01 T02290188  RH  078%=      5-min Rain = 0
KPD2 280843Z 19005KT 23/19 A2968 RMK A01 T02300188  RH  077%=      5-min Rain = 0
KPD2 280844Z 18005KT 23/19 A2968 RMK A01 T02310188  RH  077%=      5-min Rain = 0
KPD2 280845Z 17005KT 23/19 A2968 RMK A01 T02310188  RH  077%=      5-min Rain = 0
KPD2 280846Z 19005KT 23/19 A2968 RMK A01 T02310188  RH  077%=      5-min Rain = 0
KPD2 280847Z 19005KT 23/19 A2968 RMK A01 T02310188  RH  077%=      5-min Rain = 0
KPD2 280848Z 16003KT 23/19 A2968 RMK A01 T02310188  RH  077%=      5-min Rain = 0
KPD2 280849Z 19006KT 23/19 A2968 RMK A01 T02310187  RH  077%=      5-min Rain = 0
KPD2 280850Z 14008G13KT 23/19 A2968 RMK A01 T02310187  RH  076%=      5-min Rain = 0
KPD2 280851Z 14004KT 23/19 A2968 RMK A01 T02310187  RH  076%=      5-min Rain = 0
KPD2 280852Z 15003KT 23/19 A2968 RMK A01 T02310187  RH  076%=      5-min Rain = 0
KPD2 280853Z 21003KT 23/19 A2968 RMK A01 T02320187  RH  076%=      5-min Rain = 0
KPD2 280854Z 19005KT 23/19 A2968 RMK A01 T02320187  RH  076%=      5-min Rain = 0
KPD2 280855Z 20004KT 23/19 A2968 RMK A01 T02320187  RH  076%=      5-min Rain = 0
KPD2 280856Z 18006KT 23/19 A2968 RMK A01 T02320187  RH  076%=      5-min Rain = 0
KPD2 280857Z 18005KT 23/19 A2968 RMK A01 T02320187  RH  076%=      5-min Rain = 0
KPD2 280858Z 19002KT 23/19 A2968 RMK A01 T02320187  RH  076%=      5-min Rain = 0
KPD2 280859Z 17004KT 23/19 A2968 RMK A01 T02320187  RH  076%=      5-min Rain = 0
KPD2 280900Z 17003KT 23/19 A2968 RMK A01 T02310187  RH  076%=      5-min Rain = 0
KPD2 280901Z 20004KT 23/19 A2968 RMK A01 T02310187  RH  076%=      5-min Rain = 0
KPD2 280902Z 18003KT 23/19 A2968 RMK A01 T02310187  RH  076%=      5-min Rain = 0
KPD2 280903Z 18003KT 23/19 A2968 RMK A01 T02310187  RH  076%=      5-min Rain = 0
KPD2 280904Z 17003KT 23/19 A2968 RMK A01 T02310187  RH  076%=      5-min Rain = 0
KPD2 280905Z 20005KT 23/19 A2968 RMK A01 T02310187  RH  076%=      5-min Rain = 0
KPD2 280906Z 25003KT 23/19 A2968 RMK A01 T02300187  RH  076%=      5-min Rain = 0
KPD2 280907Z 22004KT 23/19 A2968 RMK A01 T02300186  RH  076%=      5-min Rain = 0
KPD2 280908Z 18003KT 23/19 A2968 RMK A01 T02300186  RH  076%=      5-min Rain = 0
KPD2 280909Z 17003KT 23/19 A2968 RMK A01 T02310187  RH  076%=      5-min Rain = 0
KPD2 280910Z 20004KT 23/19 A2968 RMK A01 T02300187  RH  076%=      5-min Rain = 0
KPD2 280911Z 18005KT 23/19 A2968 RMK A01 T02300186  RH  076%=      5-min Rain = 0
KPD2 280912Z 23004KT 23/19 A2968 RMK A01 T02300186  RH  076%=      5-min Rain = 0
KPD2 280913Z 22005KT 23/19 A2968 RMK A01 T02300186  RH  076%=      5-min Rain = 0
KPD2 280914Z 23003KT 23/19 A2968 RMK A01 T02300186  RH  076%=      5-min Rain = 0
KPD2 280915Z 30001KT 23/19 A2968 RMK A01 T02290186  RH  076%=      5-min Rain = 0
KPD2 280916Z 21003KT 23/19 A2968 RMK A01 T02290186  RH  076%=      5-min Rain = 0
KPD2 280917Z 20007KT 23/19 A2968 RMK A01 T02290186  RH  077%=      5-min Rain = 0
KPD2 280918Z 20009KT 23/19 A2968 RMK A01 T02290185  RH  076%=      5-min Rain = 0
KPD2 280919Z 19006KT 23/19 A2968 RMK A01 T02290185  RH  076%=      5-min Rain = 0
KPD2 280920Z 18006KT 23/19 A2968 RMK A01 T02290185  RH  076%=      5-min Rain = 0
KPD2 280921Z 21006KT 23/19 A2968 RMK A01 T02300186  RH  076%=      5-min Rain = 0
KPD2 280922Z 20005KT 23/19 A2968 RMK A01 T02290185  RH  076%=      5-min Rain = 0
KPD2 280923Z 21005KT 23/19 A2968 RMK A01 T02290186  RH  076%=      5-min Rain = 0
KPD2 280924Z 20005G10KT 23/19 A2968 RMK A01 T02290185  RH  076%=      5-min Rain = 0
KPD2 280925Z 19009KT 23/19 A2968 RMK A01 T02290185  RH  076%=      5-min Rain = 0
KPD2 280926Z 22007KT 23/19 A2968 RMK A01 T02290185  RH  076%=      5-min Rain = 0
KPD2 280927Z 20005KT 23/19 A2968 RMK A01 T02290185  RH  076%=      5-min Rain = 0
KPD2 280928Z 20005G11KT 23/19 A2968 RMK A01 T02290185  RH  076%=      5-min Rain = 0
KPD2 280929Z 21008KT 23/19 A2968 RMK A01 T02290185  RH  076%=      5-min Rain = 0
KPD2 280930Z 20005KT 23/19 A2968 RMK A01 T02290185  RH  076%=      5-min Rain = 0
KPD2 280931Z 22006KT 23/19 A2968 RMK A01 T02290185  RH  076%=      5-min Rain = 0
KPD2 280932Z 21006KT 23/19 A2968 RMK A01 T02280185  RH  077%=      5-min Rain = 0
KPD2 280933Z 20005KT 23/19 A2968 RMK A01 T02280185  RH  077%=      5-min Rain = 0
KPD2 280934Z 20006KT 23/19 A2968 RMK A01 T02280185  RH  077%=      5-min Rain = 0
KPD2 280935Z 22006G11KT 23/19 A2968 RMK A01 T02280185  RH  077%=      5-min Rain = 0
KPD2 280936Z 20007G12KT 23/19 A2968 RMK A01 T02280185  RH  077%=      5-min Rain = 0
KPD2 280937Z 22004KT 23/19 A2968 RMK A01 T02270185  RH  077%=      5-min Rain = 0
KPD2 280938Z 24007KT 23/18 A2968 RMK A01 T02270184  RH  077%=      5-min Rain = 0
KPD2 280939Z 20008KT 23/18 A2968 RMK A01 T02270184  RH  077%=      5-min Rain = 0
KPD2 280940Z 21008KT 23/18 A2968 RMK A01 T02270184  RH  077%=      5-min Rain = 0
KPD2 280941Z 22007KT 23/18 A2968 RMK A01 T02270184  RH  077%=      5-min Rain = 0
KPD2 280942Z 22005KT 23/18 A2968 RMK A01 T02260184  RH  077%=      5-min Rain = 0
KPD2 280943Z 20005KT 23/18 A2968 RMK A01 T02260183  RH  077%=      5-min Rain = 0
KPD2 280944Z 22004KT 23/18 A2968 RMK A01 T02260184  RH  077%=      5-min Rain = 0
KPD2 280945Z 23004G10KT 23/18 A2968 RMK A01 T02250183  RH  077%=      5-min Rain = 0
KPD2 280946Z 21008KT 23/18 A2968 RMK A01 T02250183  RH  077%=      5-min Rain = 0
KPD2 280947Z 21007KT 23/18 A2968 RMK A01 T02250182  RH  077%=      5-min Rain = 0
KPD2 280948Z 21007KT 23/18 A2968 RMK A01 T02250182  RH  077%=      5-min Rain = 0
KPD2 280949Z 21006G11KT 23/18 A2968 RMK A01 T02250182  RH  077%=      5-min Rain = 0
KPD2 280950Z 21004KT 23/18 A2968 RMK A01 T02250182  RH  076%=      5-min Rain = 0
KPD2 280951Z 23007KT 22/18 A2968 RMK A01 T02240181  RH  077%=      5-min Rain = 0
KPD2 280952Z 22007G12KT 22/18 A2968 RMK A01 T02240181  RH  077%=      5-min Rain = 0
KPD2 280953Z 20005G10KT 22/18 A2968 RMK A01 T02240181  RH  076%=      5-min Rain = 0
KPD2 280954Z 23008KT 22/18 A2968 RMK A01 T02240180  RH  077%=      5-min Rain = 0
KPD2 280955Z 23007KT 22/18 A2968 RMK A01 T02240181  RH  077%=      5-min Rain = 0
KPD2 280956Z 21004KT 22/18 A2968 RMK A01 T02230181  RH  077%=      5-min Rain = 0
KPD2 280957Z 25005KT 22/18 A2968 RMK A01 T02230181  RH  077%=      5-min Rain = 0
KPD2 280958Z 22007KT 22/18 A2968 RMK A01 T02230179  RH  076%=      5-min Rain = 0
KPD2 280959Z 19005KT 22/18 A2968 RMK A01 T02230180  RH  076%=      5-min Rain = 0
KPD2 281000Z 21003KT 22/18 A2968 RMK A01 T02230180  RH  077%=      5-min Rain = 0
KPD2 281001Z 22005G10KT 22/18 A2968 RMK A01 T02220180  RH  077%=      5-min Rain = 0
KPD2 281002Z 22008KT 22/18 A2968 RMK A01 T02210179  RH  077%=      5-min Rain = 0
KPD2 281003Z 22006KT 22/18 A2968 RMK A01 T02210179  RH  077%=      5-min Rain = 0
KPD2 281004Z 21003KT 22/18 A2968 RMK A01 T02210179  RH  077%=      5-min Rain = 0
KPD2 281005Z 21001KT 22/18 A2968 RMK A01 T02210179  RH  077%=      5-min Rain = 0
KPD2 281006Z 17000KT 22/18 A2968 RMK A01 T02200178  RH  077%=      5-min Rain = 0
KPD2 281007Z 28001KT 22/18 A2968 RMK A01 T02200179  RH  077%=      5-min Rain = 0
KPD2 281008Z 25003KT 22/18 A2969 RMK A01 T02190178  RH  078%=      5-min Rain = 0
KPD2 281009Z 27004KT 22/18 A2969 RMK A01 T02180177  RH  077%=      5-min Rain = 0
KPD2 281010Z 25005KT 22/18 A2969 RMK A01 T02170176  RH  077%=      5-min Rain = 0
KPD2 281011Z 26007KT 22/17 A2969 RMK A01 T02170174  RH  077%=      5-min Rain = 0
KPD2 281012Z 28005KT 22/17 A2969 RMK A01 T02170174  RH  077%=      5-min Rain = 0
KPD2 281013Z 32002KT 22/17 A2969 RMK A01 T02170174  RH  076%=      5-min Rain = 0
KPD2 281014Z 29004KT 22/18 A2969 RMK A01 T02170175  RH  077%=      5-min Rain = 0
KPD2 281015Z 29003KT 22/18 A2969 RMK A01 T02160175  RH  077%=      5-min Rain = 0
KPD2 281016Z 29002KT 22/17 A2969 RMK A01 T02150174  RH  078%=      5-min Rain = 0
KPD2 281017Z 30001KT 22/17 A2969 RMK A01 T02150174  RH  078%=      5-min Rain = 0
KPD2 281018Z 25002KT 21/17 A2969 RMK A01 T02140174  RH  078%=      5-min Rain = 0
KPD2 281019Z 27003KT 21/17 A2968 RMK A01 T02140174  RH  078%=      5-min Rain = 0
KPD2 281020Z 28002KT 21/17 A2968 RMK A01 T02140173  RH  078%=      5-min Rain = 0
KPD2 281021Z 26002KT 21/17 A2969 RMK A01 T02130173  RH  078%=      5-min Rain = 0
KPD2 281022Z 26002KT 21/17 A2969 RMK A01 T02120174  RH  079%=      5-min Rain = 0
KPD2 281023Z 27001KT 21/17 A2969 RMK A01 T02110174  RH  079%=      5-min Rain = 0
KPD2 281024Z 31000KT 21/17 A2969 RMK A01 T02110174  RH  080%=      5-min Rain = 0
KPD2 281025Z 34002KT 21/17 A2969 RMK A01 T02090173  RH  080%=      5-min Rain = 0
KPD2 281026Z 35001KT 21/17 A2969 RMK A01 T02080173  RH  080%=      5-min Rain = 0
KPD2 281027Z 33002KT 21/17 A2969 RMK A01 T02070173  RH  081%=      5-min Rain = 0
KPD2 281028Z 31001KT 21/17 A2969 RMK A01 T02060173  RH  081%=      5-min Rain = 0
KPD2 281029Z 31002KT 21/17 A2969 RMK A01 T02050172  RH  081%=      5-min Rain = 0
KPD2 281030Z 31002KT 20/17 A2969 RMK A01 T02040171  RH  081%=      5-min Rain = 0
KPD2 281031Z 30003KT 20/17 A2969 RMK A01 T02030171  RH  082%=      5-min Rain = 0
KPD2 281032Z 31003KT 20/17 A2969 RMK A01 T02030171  RH  082%=      5-min Rain = 0
KPD2 281033Z 32003KT 20/17 A2969 RMK A01 T02010169  RH  082%=      5-min Rain = 0
KPD2 281034Z 34003KT 20/17 A2969 RMK A01 T02010169  RH  082%=      5-min Rain = 0
KPD2 281035Z 34003KT 20/17 A2969 RMK A01 T01990168  RH  082%=      5-min Rain = 0
KPD2 281036Z 34003KT 20/17 A2969 RMK A01 T01980168  RH  083%=      5-min Rain = 0
KPD2 281037Z 34003KT 20/17 A2969 RMK A01 T01970168  RH  083%=      5-min Rain = 0
KPD2 281038Z 33003KT 20/17 A2969 RMK A01 T01960167  RH  083%=      5-min Rain = 0
KPD2 281039Z 32003KT 20/17 A2969 RMK A01 T01950166  RH  083%=      5-min Rain = 0
KPD2 281040Z 31003KT 19/17 A2969 RMK A01 T01940166  RH  083%=      5-min Rain = 0
KPD2 281041Z 31003KT 19/17 A2969 RMK A01 T01940165  RH  083%=      5-min Rain = 0
KPD2 281042Z 33004KT 19/16 A2969 RMK A01 T01940164  RH  083%=      5-min Rain = 0
KPD2 281043Z 34005KT 19/16 A2969 RMK A01 T01940161  RH  081%=      5-min Rain = 0
KPD2 281044Z 34004KT 20/16 A2969 RMK A01 T01950160  RH  080%=      5-min Rain = 0
KPD2 281045Z 33005KT 20/16 A2969 RMK A01 T01950158  RH  079%=      5-min Rain = 0
KPD2 281046Z 33006KT 20/16 A2969 RMK A01 T01950156  RH  078%=      5-min Rain = 0
KPD2 281047Z 33005KT 20/16 A2969 RMK A01 T01960155  RH  077%=      5-min Rain = 0
KPD2 281048Z 33004KT 20/15 A2969 RMK A01 T01960153  RH  076%=      5-min Rain = 0
KPD2 281049Z 32003KT 20/15 A2969 RMK A01 T01980153  RH  075%=      5-min Rain = 0
KPD2 281050Z 32004KT 20/15 A2969 RMK A01 T01970150  RH  074%=      5-min Rain = 0
KPD2 281051Z 31004KT 20/15 A2969 RMK A01 T01970149  RH  074%=      5-min Rain = 0
KPD2 281052Z 32005KT 20/15 A2969 RMK A01 T01970149  RH  074%=      5-min Rain = 0
KPD2 281053Z 34004KT 20/15 A2969 RMK A01 T01980149  RH  073%=      5-min Rain = 0
KPD2 281054Z 31005KT 20/15 A2969 RMK A01 T01970148  RH  073%=      5-min Rain = 0
KPD2 281055Z 32005KT 20/15 A2969 RMK A01 T01980146  RH  072%=      5-min Rain = 0
KPD2 281056Z 29004KT 20/15 A2969 RMK A01 T01980145  RH  071%=      5-min Rain = 0
KPD2 281057Z 30004KT 20/14 A2969 RMK A01 T01980144  RH  071%=      5-min Rain = 0
KPD2 281058Z 29004KT 20/14 A297 RMK A01 T01970144  RH  071%=      5-min Rain = 0
KPD2 281059Z 29004KT 20/14 A297 RMK A01 T01970143  RH  071%=      5-min Rain = 0
KPD2 281100Z 30005KT 20/14 A297 RMK A01 T01970142  RH  070%=      5-min Rain = 0
KPD2 281101Z 31005KT 20/14 A297 RMK A01 T01980142  RH  070%=      5-min Rain = 0
KPD2 281102Z 30004KT 20/14 A297 RMK A01 T01970144  RH  071%=      5-min Rain = 0
KPD2 281103Z 30004KT 20/14 A297 RMK A01 T01960144  RH  072%=      5-min Rain = 0
KPD2 281104Z 30005KT 20/14 A297 RMK A01 T01950140  RH  071%=      5-min Rain = 0
KPD2 281105Z 32005KT 19/14 A297 RMK A01 T01940135  RH  069%=      5-min Rain = 0
KPD2 281106Z 30004KT 19/13 A297 RMK A01 T01940126  RH  065%=      5-min Rain = 0
KPD2 281107Z 31003KT 19/13 A297 RMK A01 T01940131  RH  067%=      5-min Rain = 0
KPD2 281108Z 32003KT 19/14 A297 RMK A01 T01940136  RH  069%=      5-min Rain = 0
KPD2 281109Z 31003KT 19/14 A297 RMK A01 T01930139  RH  071%=      5-min Rain = 0
KPD2 281110Z 30003KT 19/14 A297 RMK A01 T01920139  RH  072%=      5-min Rain = 0
KPD2 281111Z 31003KT 19/14 A297 RMK A01 T01900139  RH  072%=      5-min Rain = 0
KPD2 281112Z 30002KT 19/14 A297 RMK A01 T01890140  RH  073%=      5-min Rain = 0
KPD2 281113Z 30003KT 19/14 A297 RMK A01 T01880140  RH  074%=      5-min Rain = 0
KPD2 281114Z 30003KT 19/14 A297 RMK A01 T01870139  RH  074%=      5-min Rain = 0
KPD2 281115Z 30003KT 19/14 A297 RMK A01 T01870138  RH  073%=      5-min Rain = 0
KPD2 281116Z 30003KT 19/14 A297 RMK A01 T01860137  RH  073%=      5-min Rain = 0
KPD2 281117Z 31003KT 19/14 A297 RMK A01 T01850136  RH  073%=      5-min Rain = 0
KPD2 281118Z 31003KT 18/14 A297 RMK A01 T01840135  RH  073%=      5-min Rain = 0
KPD2 281119Z 30003KT 18/13 A297 RMK A01 T01820134  RH  073%=      5-min Rain = 0
KPD2 281120Z 31002KT 18/13 A297 RMK A01 T01810134  RH  074%=      5-min Rain = 0
KPD2 281121Z 30003KT 18/13 A297 RMK A01 T01800134  RH  074%=      5-min Rain = 0
KPD2 281122Z 29003KT 18/13 A297 RMK A01 T01790132  RH  074%=      5-min Rain = 0
KPD2 281123Z 29003KT 18/13 A297 RMK A01 T01780131  RH  074%=      5-min Rain = 0
KPD2 281124Z 29004KT 18/13 A297 RMK A01 T01780130  RH  074%=      5-min Rain = 0
KPD2 281125Z 29004KT 18/13 A297 RMK A01 T01770125  RH  071%=      5-min Rain = 0
KPD2 281126Z 28003KT 18/12 A297 RMK A01 T01770123  RH  070%=      5-min Rain = 0
KPD2 281127Z 29004KT 18/12 A297 RMK A01 T01770121  RH  069%=      5-min Rain = 0
KPD2 281128Z 30004KT 18/12 A297 RMK A01 T01770118  RH  068%=      5-min Rain = 0
KPD2 281129Z 30005KT 18/12 A297 RMK A01 T01760118  RH  069%=      5-min Rain = 0
KPD2 281130Z 31004KT 18/12 A297 RMK A01 T01760117  RH  068%=      5-min Rain = 0
KPD2 281131Z 30005KT 18/12 A297 RMK A01 T01750116  RH  068%=      5-min Rain = 0
KPD2 281132Z 31004KT 17/11 A297 RMK A01 T01740113  RH  067%=      5-min Rain = 0
KPD2 281133Z 31004KT 17/11 A297 RMK A01 T01740113  RH  068%=      5-min Rain = 0
KPD2 281134Z 31004KT 17/11 A297 RMK A01 T01730114  RH  068%=      5-min Rain = 0
KPD2 281135Z 31004KT 17/11 A297 RMK A01 T01720113  RH  068%=      5-min Rain = 0
KPD2 281136Z 31005KT 17/11 A2971 RMK A01 T01710110  RH  067%=      5-min Rain = 0
KPD2 281137Z 31005KT 17/10 A2971 RMK A01 T01700104  RH  065%=      5-min Rain = 0
KPD2 281138Z 32004KT 17/10 A2971 RMK A01 T01700104  RH  065%=      5-min Rain = 0
KPD2 281139Z 32003KT 17/11 A2971 RMK A01 T01700105  RH  066%=      5-min Rain = 0
KPD2 281140Z 32004KT 17/11 A2971 RMK A01 T01690105  RH  066%=      5-min Rain = 0
KPD2 281141Z 32004KT 17/10 A2971 RMK A01 T01670103  RH  066%=      5-min Rain = 0
KPD2 281142Z 32004KT 17/10 A2971 RMK A01 T01670101  RH  065%=      5-min Rain = 0
KPD2 281143Z 32005KT 17/10 A2971 RMK A01 T01660100  RH  065%=      5-min Rain = 0
KPD2 281144Z 31004KT 17/10 A2971 RMK A01 T01660097  RH  064%=      5-min Rain = 0
KPD2 281145Z 31005KT 17/10 A2971 RMK A01 T01660095  RH  063%=      5-min Rain = 0
KPD2 281146Z 32005KT 17/10 A2971 RMK A01 T01660096  RH  063%=      5-min Rain = 0
KPD2 281147Z 32005KT 17/09 A2971 RMK A01 T01660094  RH  063%=      5-min Rain = 0
KPD2 281148Z 32004KT 17/10 A2971 RMK A01 T01650095  RH  063%=      5-min Rain = 0
KPD2 281149Z 32005KT 16/09 A2971 RMK A01 T01640093  RH  063%=      5-min Rain = 0
KPD2 281150Z 33006KT 16/09 A2971 RMK A01 T01640090  RH  062%=      5-min Rain = 0
KPD2 281151Z 33006KT 16/09 A2971 RMK A01 T01640088  RH  061%=      5-min Rain = 0
KPD2 281152Z 33005KT 16/09 A2971 RMK A01 T01630087  RH  061%=      5-min Rain = 0
KPD2 281153Z 33006KT 16/08 A2971 RMK A01 T01630082  RH  059%=      5-min Rain = 0
KPD2 281154Z 33006KT 16/08 A2971 RMK A01 T01630079  RH  058%=      5-min Rain = 0
KPD2 281155Z 32005KT 16/08 A2971 RMK A01 T01630081  RH  058%=      5-min Rain = 0
KPD2 281156Z 32005KT 16/08 A2971 RMK A01 T01630078  RH  057%=      5-min Rain = 0
KPD2 281157Z 33005KT 16/08 A2971 RMK A01 T01630078  RH  057%=      5-min Rain = 0
KPD2 281158Z 33006KT 16/08 A2971 RMK A01 T01630076  RH  056%=      5-min Rain = 0
KPD2 281159Z 33005KT 16/07 A2971 RMK A01 T01630074  RH  056%=      5-min Rain = 0
KPD2 281200Z 33005KT 16/07 A2971 RMK A01 T01630073  RH  055%=      5-min Rain = 0
KPD2 281201Z 32004KT 16/07 A2971 RMK A01 T01620071  RH  055%=      5-min Rain = 0
KPD2 281202Z 32005KT 16/07 A2972 RMK A01 T01620071  RH  055%=      5-min Rain = 0
KPD2 281203Z 32006KT 16/07 A2972 RMK A01 T01620069  RH  054%=      5-min Rain = 0
KPD2 281204Z 31006KT 16/07 A2972 RMK A01 T01620070  RH  054%=      5-min Rain = 0
KPD2 281205Z 31005KT 16/07 A2972 RMK A01 T01620069  RH  054%=      5-min Rain = 0
KPD2 281206Z 31006KT 16/07 A2972 RMK A01 T01620069  RH  054%=      5-min Rain = 0
KPD2 281207Z 31006KT 16/07 A2972 RMK A01 T01620068  RH  054%=      5-min Rain = 0
KPD2 281208Z 31004KT 16/07 A2972 RMK A01 T01610070  RH  055%=      5-min Rain = 0
KPD2 281209Z 31005KT 16/07 A2972 RMK A01 T01610070  RH  055%=      5-min Rain = 0
KPD2 281210Z 30006KT 16/07 A2972 RMK A01 T01600068  RH  054%=      5-min Rain = 0
KPD2 281211Z 30006KT 16/07 A2972 RMK A01 T01600067  RH  054%=      5-min Rain = 0
KPD2 281212Z 31006KT 16/07 A2972 RMK A01 T01590068  RH  055%=      5-min Rain = 0
KPD2 281213Z 32005KT 16/07 A2972 RMK A01 T01590068  RH  055%=      5-min Rain = 0
KPD2 281214Z 32005KT 16/07 A2972 RMK A01 T01580067  RH  055%=      5-min Rain = 0
KPD2 281215Z 32005KT 16/07 A2972 RMK A01 T01580068  RH  055%=      5-min Rain = 0
KPD2 281216Z 31005KT 16/07 A2972 RMK A01 T01570069  RH  056%=      5-min Rain = 0
KPD2 281217Z 30005KT 16/07 A2972 RMK A01 T01560068  RH  056%=      5-min Rain = 0
KPD2 281218Z 31005KT 16/07 A2972 RMK A01 T01560068  RH  056%=      5-min Rain = 0
KPD2 281219Z 31005KT 16/07 A2972 RMK A01 T01560068  RH  056%=      5-min Rain = 0
KPD2 281220Z 31006KT 16/07 A2972 RMK A01 T01560069  RH  056%=      5-min Rain = 0
KPD2 281221Z 31006KT 16/07 A2972 RMK A01 T01550071  RH  057%=      5-min Rain = 0
KPD2 281222Z 32006KT 16/07 A2972 RMK A01 T01550070  RH  057%=      5-min Rain = 0
KPD2 281223Z 32005KT 15/07 A2972 RMK A01 T01540072  RH  058%=      5-min Rain = 0
KPD2 281224Z 32005KT 15/07 A2972 RMK A01 T01540071  RH  058%=      5-min Rain = 0
KPD2 281225Z 31006KT 15/07 A2972 RMK A01 T01540071  RH  057%=      5-min Rain = 0
KPD2 281226Z 31005KT 16/07 A2972 RMK A01 T01550070  RH  057%=      5-min Rain = 0
KPD2 281227Z 31006KT 16/07 A2972 RMK A01 T01550070  RH  057%=      5-min Rain = 0
KPD2 281228Z 31006KT 16/07 A2972 RMK A01 T01550072  RH  058%=      5-min Rain = 0
KPD2 281229Z 31005KT 15/07 A2972 RMK A01 T01540070  RH  057%=      5-min Rain = 0
KPD2 281230Z 32006KT 15/07 A2972 RMK A01 T01540068  RH  056%=      5-min Rain = 0
KPD2 281231Z 31006KT 15/07 A2972 RMK A01 T01540066  RH  056%=      5-min Rain = 0
KPD2 281232Z 32007KT 16/06 A2972 RMK A01 T01550063  RH  054%=      5-min Rain = 0
KPD2 281233Z 33005KT 16/07 A2972 RMK A01 T01550065  RH  055%=      5-min Rain = 0
KPD2 281234Z 32005KT 15/07 A2972 RMK A01 T01540066  RH  056%=      5-min Rain = 0
KPD2 281235Z 31006KT 15/06 A2972 RMK A01 T01540064  RH  055%=      5-min Rain = 0
KPD2 281236Z 32007KT 15/06 A2972 RMK A01 T01540063  RH  055%=      5-min Rain = 0
KPD2 281237Z 31005KT 15/06 A2972 RMK A01 T01540063  RH  055%=      5-min Rain = 0
KPD2 281238Z 31005KT 15/06 A2972 RMK A01 T01530063  RH  055%=      5-min Rain = 0
KPD2 281239Z 31005KT 15/06 A2972 RMK A01 T01530062  RH  054%=      5-min Rain = 0
KPD2 281240Z 31007KT 15/06 A2972 RMK A01 T01530062  RH  054%=      5-min Rain = 0
KPD2 281241Z 32007KT 15/06 A2972 RMK A01 T01530060  RH  054%=      5-min Rain = 0
KPD2 281242Z 31006KT 15/06 A2972 RMK A01 T01530059  RH  053%=      5-min Rain = 0
KPD2 281243Z 31006KT 15/06 A2972 RMK A01 T01530059  RH  053%=      5-min Rain = 0
KPD2 281244Z 31007KT 15/06 A2972 RMK A01 T01540058  RH  053%=      5-min Rain = 0
KPD2 281245Z 32005KT 15/06 A2972 RMK A01 T01540059  RH  053%=      5-min Rain = 0
KPD2 281246Z 31007KT 16/06 A2972 RMK A01 T01550061  RH  053%=      5-min Rain = 0
KPD2 281247Z 31006KT 15/06 A2972 RMK A01 T01540057  RH  052%=      5-min Rain = 0
KPD2 281248Z 31006KT 16/06 A2972 RMK A01 T01550056  RH  052%=      5-min Rain = 0
KPD2 281249Z 32006KT 16/06 A2972 RMK A01 T01560057  RH  052%=      5-min Rain = 0
KPD2 281250Z 32006KT 16/06 A2972 RMK A01 T01560057  RH  052%=      5-min Rain = 0
KPD2 281251Z 31007KT 16/06 A2972 RMK A01 T01550056  RH  051%=      5-min Rain = 0
KPD2 281252Z 32006KT 16/06 A2972 RMK A01 T01550057  RH  052%=      5-min Rain = 0
KPD2 281253Z 33007KT 16/06 A2972 RMK A01 T01550057  RH  052%=      5-min Rain = 0
KPD2 281254Z 33006KT 16/05 A2972 RMK A01 T01550054  RH  051%=      5-min Rain = 0
KPD2 281255Z 33006KT 16/06 A2972 RMK A01 T01560055  RH  051%=      5-min Rain = 0
KPD2 281256Z 32008KT 16/05 A2972 RMK A01 T01560052  RH  050%=      5-min Rain = 0
KPD2 281257Z 33007KT 16/05 A2972 RMK A01 T01580050  RH  049%=      5-min Rain = 0
KPD2 281258Z 33007KT 16/05 A2972 RMK A01 T01600051  RH  048%=      5-min Rain = 0
KPD2 281259Z 33007KT 16/05 A2972 RMK A01 T01620049  RH  047%=      5-min Rain = 0
KPD2 281300Z 33007KT 16/05 A2973 RMK A01 T01630051  RH  047%=      5-min Rain = 0
KPD2 281301Z 32007KT 16/05 A2973 RMK A01 T01640050  RH  047%=      5-min Rain = 0
KPD2 281302Z 33006KT 17/05 A2973 RMK A01 T01650050  RH  047%=      5-min Rain = 0
KPD2 281303Z 33006KT 17/05 A2973 RMK A01 T01660048  RH  046%=      5-min Rain = 0
KPD2 281304Z 33006KT 17/05 A2973 RMK A01 T01680053  RH  047%=      5-min Rain = 0
KPD2 281305Z 32007KT 17/05 A2973 RMK A01 T01690051  RH  046%=      5-min Rain = 0
KPD2 281306Z 32008KT 17/05 A2973 RMK A01 T01700050  RH  045%=      5-min Rain = 0
KPD2 281307Z 32005KT 17/05 A2973 RMK A01 T01710048  RH  044%=      5-min Rain = 0
KPD2 281308Z 32006KT 17/05 A2973 RMK A01 T01720047  RH  044%=      5-min Rain = 0
KPD2 281309Z 32007KT 17/05 A2973 RMK A01 T01740049  RH  044%=      5-min Rain = 0
KPD2 281310Z 31007KT 17/05 A2973 RMK A01 T01740048  RH  043%=      5-min Rain = 0
KPD2 281311Z 31008KT 18/05 A2973 RMK A01 T01750048  RH  043%=      5-min Rain = 0
KPD2 281312Z 31008KT 18/04 A2973 RMK A01 T01750044  RH  042%=      5-min Rain = 0
KPD2 281313Z 31007KT 18/05 A2973 RMK A01 T01760045  RH  042%=      5-min Rain = 0
KPD2 281314Z 31007KT 18/04 A2973 RMK A01 T01770044  RH  041%=      5-min Rain = 0
KPD2 281315Z 31007KT 18/05 A2973 RMK A01 T01780046  RH  042%=      5-min Rain = 0
KPD2 281316Z 31006KT 18/04 A2973 RMK A01 T01780044  RH  041%=      5-min Rain = 0
KPD2 281317Z 31005KT 18/05 A2973 RMK A01 T01790048  RH  042%=      5-min Rain = 0
KPD2 281318Z 31006KT 18/05 A2973 RMK A01 T01790049  RH  042%=      5-min Rain = 0
KPD2 281319Z 33005KT 18/05 A2973 RMK A01 T01790050  RH  042%=      5-min Rain = 0
KPD2 281320Z 33007KT 18/05 A2973 RMK A01 T01790050  RH  042%=      5-min Rain = 0
KPD2 281321Z 32007KT 18/05 A2973 RMK A01 T01800048  RH  042%=      5-min Rain = 0
KPD2 281322Z 33008KT 18/05 A2973 RMK A01 T01800046  RH  041%=      5-min Rain = 0
KPD2 281323Z 32008KT 18/05 A2973 RMK A01 T01810046  RH  041%=      5-min Rain = 0
KPD2 281324Z 32008KT 18/04 A2973 RMK A01 T01820044  RH  040%=      5-min Rain = 0
KPD2 281325Z 33006KT 18/05 A2973 RMK A01 T01820045  RH  040%=      5-min Rain = 0
KPD2 281326Z 33007KT 18/05 A2973 RMK A01 T01830047  RH  041%=      5-min Rain = 0
KPD2 281327Z 33009KT 18/05 A2973 RMK A01 T01840046  RH  040%=      5-min Rain = 0
KPD2 281328Z 32008KT 18/05 A2973 RMK A01 T01840046  RH  040%=      5-min Rain = 0
KPD2 281329Z 32005KT 18/05 A2973 RMK A01 T01840046  RH  040%=      5-min Rain = 0
KPD2 281330Z 33007KT 19/05 A2973 RMK A01 T01850048  RH  040%=      5-min Rain = 0
KPD2 281331Z 32005KT 19/05 A2973 RMK A01 T01860049  RH  040%=      5-min Rain = 0
KPD2 281332Z 33005KT 19/05 A2973 RMK A01 T01870050  RH  041%=      5-min Rain = 0
KPD2 281333Z 32006KT 19/05 A2973 RMK A01 T01880051  RH  041%=      5-min Rain = 0
KPD2 281334Z 32005KT 19/05 A2973 RMK A01 T01890047  RH  039%=      5-min Rain = 0
KPD2 281335Z 33008KT 19/05 A2973 RMK A01 T01890048  RH  039%=      5-min Rain = 0
KPD2 281336Z 32007KT 19/05 A2973 RMK A01 T01890048  RH  039%=      5-min Rain = 0
KPD2 281337Z 33008KT 19/05 A2973 RMK A01 T01890048  RH  039%=      5-min Rain = 0
KPD2 281338Z 33006KT 19/04 A2973 RMK A01 T01900044  RH  038%=      5-min Rain = 0
KPD2 281339Z 32006KT 19/05 A2973 RMK A01 T01910045  RH  038%=      5-min Rain = 0
KPD2 281340Z 34006KT 19/05 A2973 RMK A01 T01910050  RH  039%=      5-min Rain = 0
KPD2 281341Z 33005KT 19/05 A2973 RMK A01 T01920047  RH  039%=      5-min Rain = 0
KPD2 281342Z 33007KT 19/05 A2973 RMK A01 T01920047  RH  038%=      5-min Rain = 0
KPD2 281343Z 32005KT 19/05 A2973 RMK A01 T01930047  RH  038%=      5-min Rain = 0
KPD2 281344Z 32004KT 19/05 A2973 RMK A01 T01930051  RH  039%=      5-min Rain = 0
KPD2 281345Z 32005KT 20/05 A2973 RMK A01 T01950049  RH  038%=      5-min Rain = 0
KPD2 281346Z 33007KT 20/05 A2973 RMK A01 T01950045  RH  037%=      5-min Rain = 0
KPD2 281347Z 33005KT 20/04 A2973 RMK A01 T01950044  RH  037%=      5-min Rain = 0
KPD2 281348Z 32005KT 20/04 A2973 RMK A01 T01960044  RH  037%=      5-min Rain = 0
KPD2 281349Z 32006KT 20/05 A2973 RMK A01 T01970050  RH  038%=      5-min Rain = 0
KPD2 281350Z 32004KT 20/05 A2973 RMK A01 T01980048  RH  037%=      5-min Rain = 0
KPD2 281351Z 33004KT 20/05 A2973 RMK A01 T01990053  RH  038%=      5-min Rain = 0
KPD2 281352Z 33006KT 20/05 A2973 RMK A01 T02000050  RH  037%=      5-min Rain = 0
KPD2 281353Z 33007KT 20/05 A2973 RMK A01 T02000046  RH  036%=      5-min Rain = 0
KPD2 281354Z 32004KT 20/05 A2973 RMK A01 T02010050  RH  037%=      5-min Rain = 0
KPD2 281355Z 34004KT 20/05 A2973 RMK A01 T02010050  RH  037%=      5-min Rain = 0
KPD2 281356Z 34004KT 20/05 A2973 RMK A01 T02020053  RH  038%=      5-min Rain = 0
KPD2 281357Z 34004KT 20/05 A2973 RMK A01 T02020048  RH  036%=      5-min Rain = 0
KPD2 281358Z 34005KT 20/05 A2973 RMK A01 T02030050  RH  037%=      5-min Rain = 0
KPD2 281359Z 34005KT 20/05 A2973 RMK A01 T02030047  RH  036%=      5-min Rain = 0
KPD2 281400Z 34003KT 20/05 A2973 RMK A01 T02040048  RH  036%=      5-min Rain = 0
KPD2 281401Z 34003KT 20/05 A2973 RMK A01 T02040047  RH  036%=      5-min Rain = 0
KPD2 281402Z 33004KT 21/05 A2973 RMK A01 T02050048  RH  036%=      5-min Rain = 0
KPD2 281403Z 33004KT 21/05 A2973 RMK A01 T02060051  RH  036%=      5-min Rain = 0
KPD2 281404Z 35004KT 21/05 A2973 RMK A01 T02070053  RH  037%=      5-min Rain = 0
KPD2 281405Z 34004KT 21/05 A2973 RMK A01 T02080053  RH  036%=      5-min Rain = 0
KPD2 281406Z 35004KT 21/05 A2973 RMK A01 T02090045  RH  034%=      5-min Rain = 0
KPD2 281407Z 34004KT 21/05 A2973 RMK A01 T02090051  RH  035%=      5-min Rain = 0
KPD2 281408Z 36004KT 21/05 A2973 RMK A01 T02100050  RH  035%=      5-min Rain = 0
KPD2 281409Z 00002KT 21/04 A2973 RMK A01 T02110044  RH  034%=      5-min Rain = 0
KPD2 281410Z 35003KT 21/05 A2973 RMK A01 T02110054  RH  036%=      5-min Rain = 0
KPD2 281411Z 34005KT 21/05 A2973 RMK A01 T02120052  RH  035%=      5-min Rain = 0
KPD2 281412Z 35004KT 21/05 A2973 RMK A01 T02130052  RH  035%=      5-min Rain = 0
KPD2 281413Z 35003KT 21/06 A2973 RMK A01 T02140056  RH  036%=      5-min Rain = 0
KPD2 281414Z 34005KT 22/05 A2973 RMK A01 T02150050  RH  034%=      5-min Rain = 0
KPD2 281415Z 33004KT 22/05 A2973 RMK A01 T02170048  RH  033%=      5-min Rain = 0
KPD2 281416Z 34004KT 22/05 A2973 RMK A01 T02180046  RH  033%=      5-min Rain = 0
KPD2 281417Z 32003KT 22/05 A2973 RMK A01 T02180054  RH  034%=      5-min Rain = 0
KPD2 281418Z 30004KT 22/05 A2973 RMK A01 T02200051  RH  033%=      5-min Rain = 0
KPD2 281419Z 33003KT 22/05 A2973 RMK A01 T02210054  RH  034%=      5-min Rain = 0
KPD2 281420Z 33004KT 22/06 A2973 RMK A01 T02230058  RH  034%=      5-min Rain = 0
KPD2 281421Z 34003KT 22/05 A2973 RMK A01 T02230052  RH  033%=      5-min Rain = 0
KPD2 281422Z 32004KT 22/05 A2973 RMK A01 T02240050  RH  032%=      5-min Rain = 0
KPD2 281423Z 34006KT 23/05 A2973 RMK A01 T02250050  RH  032%=      5-min Rain = 0
KPD2 281424Z 31004KT 23/05 A2973 RMK A01 T02250047  RH  031%=      5-min Rain = 0
KPD2 281425Z 28003KT 23/05 A2973 RMK A01 T02250050  RH  032%=      5-min Rain = 0
KPD2 281426Z 32005KT 23/05 A2973 RMK A01 T02260049  RH  032%=      5-min Rain = 0
KPD2 281427Z 32005KT 23/05 A2973 RMK A01 T02280046  RH  031%=      5-min Rain = 0
KPD2 281428Z 31005KT 23/05 A2973 RMK A01 T02280051  RH  032%=      5-min Rain = 0
KPD2 281429Z 33004KT 23/05 A2973 RMK A01 T02290046  RH  030%=      5-min Rain = 0
KPD2 281430Z 30003KT 23/05 A2973 RMK A01 T02310052  RH  031%=      5-min Rain = 0
KPD2 281431Z 29002KT 23/06 A2973 RMK A01 T02330060  RH  033%=      5-min Rain = 0
KPD2 281432Z 30006KT 24/06 A2973 RMK A01 T02350055  RH  031%=      5-min Rain = 0
KPD2 281433Z 32004KT 24/06 A2973 RMK A01 T02360056  RH  031%=      5-min Rain = 0
KPD2 281434Z 30006KT 24/05 A2973 RMK A01 T02370052  RH  030%=      5-min Rain = 0
KPD2 281435Z 32004KT 24/04 A2973 RMK A01 T02380042  RH  028%=      5-min Rain = 0
KPD2 281436Z 32005KT 24/05 A2973 RMK A01 T02380045  RH  029%=      5-min Rain = 0
KPD2 281437Z 30006KT 24/05 A2973 RMK A01 T02380048  RH  029%=      5-min Rain = 0
KPD2 281438Z 31004KT 24/05 A2973 RMK A01 T02390046  RH  029%=      5-min Rain = 0
KPD2 281439Z 31006KT 24/05 A2973 RMK A01 T02400052  RH  030%=      5-min Rain = 0
KPD2 281440Z 31007KT 24/05 A2973 RMK A01 T02400046  RH  028%=      5-min Rain = 0
KPD2 281441Z 29005KT 24/04 A2973 RMK A01 T02420040  RH  027%=      5-min Rain = 0
KPD2 281442Z 32005KT 24/04 A2973 RMK A01 T02420044  RH  028%=      5-min Rain = 0
KPD2 281443Z 29006KT 24/04 A2973 RMK A01 T02430040  RH  027%=      5-min Rain = 0
KPD2 281444Z 31009G14KT 24/04 A2973 RMK A01 T02430037  RH  026%=      5-min Rain = 0
KPD2 281445Z 31009KT 24/03 A2973 RMK A01 T02420030  RH  025%=      5-min Rain = 0
KPD2 281446Z 31008KT 24/03 A2973 RMK A01 T02410029  RH  025%=      5-min Rain = 0
KPD2 281447Z 31007KT 24/03 A2973 RMK A01 T02410029  RH  025%=      5-min Rain = 0
KPD2 281448Z 29007KT 24/03 A2973 RMK A01 T02410030  RH  025%=      5-min Rain = 0
KPD2 281449Z 28009KT 24/03 A2973 RMK A01 T02410027  RH  025%=      5-min Rain = 0
KPD2 281450Z 27007G12KT 24/02 A2973 RMK A01 T02420023  RH  024%=      5-min Rain = 0
KPD2 281451Z 28007KT 24/02 A2973 RMK A01 T02420019  RH  023%=      5-min Rain = 0
KPD2 281452Z 31007KT 24/02 A2973 RMK A01 T02420021  RH  024%=      5-min Rain = 0
KPD2 281453Z 30010KT 24/02 A2973 RMK A01 T02410023  RH  024%=      5-min Rain = 0
KPD2 281454Z 29008G13KT 24/02 A2973 RMK A01 T02420022  RH  024%=      5-min Rain = 0
KPD2 281455Z 29010G15KT 24/02 A2973 RMK A01 T02420019  RH  023%=      5-min Rain = 0
KPD2 281456Z 28009KT 24/01 A2973 RMK A01 T02420011  RH  022%=      5-min Rain = 0
KPD2 281457Z 29011KT 24/01 A2973 RMK A01 T02420005  RH  021%=      5-min Rain = 0
KPD2 281458Z 31010G16KT 24/01 A2973 RMK A01 T02410009  RH  022%=      5-min Rain = 0
KPD2 281459Z 30009G14KT 24/01 A2973 RMK A01 T02410012  RH  022%=      5-min Rain = 0
KPD2 281500Z 30008G13KT 24/01 A2973 RMK A01 T02410011  RH  022%=      5-min Rain = 0
KPD2 281501Z 31010G15KT 24/02 A2973 RMK A01 T02420016  RH  023%=      5-min Rain = 0
KPD2 281502Z 31011KT 24/02 A2973 RMK A01 T02420016  RH  023%=      5-min Rain = 0
KPD2 281503Z 32012KT 24/02 A2973 RMK A01 T02430015  RH  022%=      5-min Rain = 0
KPD2 281504Z 31009KT 24/01 A2973 RMK A01 T02430012  RH  022%=      5-min Rain = 0
KPD2 281505Z 32010KT 24/02 A2973 RMK A01 T02430017  RH  023%=      5-min Rain = 0
KPD2 281506Z 31011KT 24/01 A2973 RMK A01 T02440013  RH  022%=      5-min Rain = 0
KPD2 281507Z 31008KT 24/02 A2973 RMK A01 T02440018  RH  023%=      5-min Rain = 0
KPD2 281508Z 30006KT 25/02 A2973 RMK A01 T02450024  RH  024%=      5-min Rain = 0
KPD2 281509Z 30007KT 25/02 A2973 RMK A01 T02460024  RH  023%=      5-min Rain = 0
KPD2 281510Z 28008G13KT 25/02 A2973 RMK A01 T02470018  RH  022%=      5-min Rain = 0
KPD2 281511Z 28006KT 25/03 A2973 RMK A01 T02480026  RH  023%=      5-min Rain = 0
KPD2 281512Z 29008G13KT 25/02 A2973 RMK A01 T02480020  RH  023%=      5-min Rain = 0
KPD2 281513Z 31010KT 25/03 A2973 RMK A01 T02480028  RH  024%=      5-min Rain = 0
KPD2 281514Z 30010KT 25/02 A2973 RMK A01 T02480018  RH  022%=      5-min Rain = 0
KPD2 281515Z 31009KT 25/02 A2973 RMK A01 T02480022  RH  023%=      5-min Rain = 0
KPD2 281516Z 32009KT 25/02 A2973 RMK A01 T02480021  RH  023%=      5-min Rain = 0
KPD2 281517Z 31010KT 25/02 A2973 RMK A01 T02480022  RH  023%=      5-min Rain = 0
KPD2 281518Z 30010KT 25/03 A2973 RMK A01 T02490027  RH  024%=      5-min Rain = 0
KPD2 281519Z 32006KT 25/03 A2973 RMK A01 T02500025  RH  023%=      5-min Rain = 0
KPD2 281520Z 30007KT 25/03 A2973 RMK A01 T02500030  RH  024%=      5-min Rain = 0
KPD2 281521Z 29007KT 25/03 A2973 RMK A01 T02510025  RH  023%=      5-min Rain = 0
KPD2 281522Z 29006KT 25/04 A2973 RMK A01 T02510035  RH  025%=      5-min Rain = 0
KPD2 281523Z 30005KT 25/04 A2973 RMK A01 T02520037  RH  025%=      5-min Rain = 0
KPD2 281524Z 28008KT 25/04 A2974 RMK A01 T02530036  RH  024%=      5-min Rain = 0
KPD2 281525Z 27009KT 25/03 A2973 RMK A01 T02530030  RH  024%=      5-min Rain = 0
KPD2 281526Z 28006KT 25/02 A2973 RMK A01 T02520022  RH  022%=      5-min Rain = 0
KPD2 281527Z 29005KT 25/04 A2974 RMK A01 T02520037  RH  025%=      5-min Rain = 0
KPD2 281528Z 29006KT 25/04 A2974 RMK A01 T02540042  RH  026%=      5-min Rain = 0
KPD2 281529Z 26009G14KT 26/03 A2974 RMK A01 T02550033  RH  024%=      5-min Rain = 0
KPD2 281530Z 26013KT 26/02 A2973 RMK A01 T02550019  RH  022%=      5-min Rain = 0
KPD2 281531Z 26010KT 25/02 A2973 RMK A01 T02530017  RH  022%=      5-min Rain = 0
KPD2 281532Z 27008KT 25/02 A2973 RMK A01 T02520019  RH  022%=      5-min Rain = 0
KPD2 281533Z 29009G14KT 25/02 A2974 RMK A01 T02520021  RH  022%=      5-min Rain = 0
KPD2 281534Z 28009G14KT 25/02 A2974 RMK A01 T02530019  RH  022%=      5-min Rain = 0
KPD2 281535Z 29009G14KT 25/02 A2974 RMK A01 T02530019  RH  022%=      5-min Rain = 0
KPD2 281536Z 30012G20KT 25/01 A2974 RMK A01 T02540011  RH  020%=      5-min Rain = 0
KPD2 281537Z 30010G15KT 25/01 A2974 RMK A01 T02530010  RH  020%=      5-min Rain = 0
KPD2 281538Z 31009KT 25/02 A2974 RMK A01 T02520017  RH  022%=      5-min Rain = 0
KPD2 281539Z 32010G15KT 25/01 A2974 RMK A01 T02520014  RH  021%=      5-min Rain = 0
KPD2 281540Z 31011G19KT 25/02 A2974 RMK A01 T02530018  RH  022%=      5-min Rain = 0
KPD2 281541Z 29012G17KT 25/01 A2974 RMK A01 T02530009  RH  020%=      5-min Rain = 0
KPD2 281542Z 30013G18KT 25/01 A2974 RMK A01 T02530005  RH  020%=      5-min Rain = 0
KPD2 281543Z 31013G19KT 25/01 A2974 RMK A01 T02530007  RH  020%=      5-min Rain = 0
KPD2 281544Z 31013KT 25/01 A2974 RMK A01 T02520008  RH  020%=      5-min Rain = 0
KPD2 281545Z 31011KT 25/01 A2974 RMK A01 T02520005  RH  020%=      5-min Rain = 0
KPD2 281546Z 32009G16KT 25/01 A2974 RMK A01 T02520011  RH  021%=      5-min Rain = 0
KPD2 281547Z 30008KT 25/02 A2974 RMK A01 T02520016  RH  021%=      5-min Rain = 0
KPD2 281548Z 27007G13KT 25/02 A2974 RMK A01 T02540015  RH  021%=      5-min Rain = 0
KPD2 281549Z 28011G16KT 26/01 A2974 RMK A01 T02550012  RH  020%=      5-min Rain = 0
KPD2 281550Z 28014KT 26/01 A2974 RMK A01 T02550011  RH  020%=      5-min Rain = 0
KPD2 281551Z 26008G14KT 25/01 A2974 RMK A01 T02540010  RH  020%=      5-min Rain = 0
KPD2 281552Z 29011G16KT 25/01 A2974 RMK A01 T02540012  RH  021%=      5-min Rain = 0
KPD2 281553Z 30011KT 25/01 A2974 RMK A01 T02540013  RH  021%=      5-min Rain = 0
KPD2 281554Z 29012G17KT 25/01 A2974 RMK A01 T02540008  RH  020%=      5-min Rain = 0
KPD2 281555Z 31014G21KT 25/01 A2973 RMK A01 T02530010  RH  020%=      5-min Rain = 0
KPD2 281556Z 31012G17KT 25/01 A2974 RMK A01 T02520012  RH  021%=      5-min Rain = 0
KPD2 281557Z 29012G17KT 25/01 A2973 RMK A01 T02530012  RH  021%=      5-min Rain = 0
KPD2 281558Z 32008KT 25/02 A2973 RMK A01 T02540015  RH  021%=      5-min Rain = 0
KPD2 281559Z 32011G16KT 26/02 A2973 RMK A01 T02560022  RH  022%=      5-min Rain = 0
KPD2 281600Z 30007KT 26/02 A2974 RMK A01 T02580019  RH  021%=      5-min Rain = 0
KPD2 281601Z 28008KT 26/02 A2974 RMK A01 T02590017  RH  021%=      5-min Rain = 0
KPD2 281602Z 29006KT 26/02 A2973 RMK A01 T02590021  RH  021%=      5-min Rain = 0
KPD2 281603Z 30007KT 26/03 A2974 RMK A01 T02610026  RH  022%=      5-min Rain = 0
KPD2 281604Z 31012KT 26/02 A2973 RMK A01 T02620020  RH  021%=      5-min Rain = 0
KPD2 281605Z 30014KT 26/01 A2974 RMK A01 T02610008  RH  019%=      5-min Rain = 0
KPD2 281606Z 29011KT 26/01 A2973 RMK A01 T02590006  RH  019%=      5-min Rain = 0
KPD2 281607Z 28008G13KT 26/01 A2973 RMK A01 T02590011  RH  020%=      5-min Rain = 0
KPD2 281608Z 29008G13KT 26/02 A2974 RMK A01 T02590020  RH  021%=      5-min Rain = 0
KPD2 281609Z 28008KT 26/02 A2973 RMK A01 T02610018  RH  021%=      5-min Rain = 0
KPD2 281610Z 28006KT 26/02 A2973 RMK A01 T02620021  RH  021%=      5-min Rain = 0
KPD2 281611Z 27008G13KT 26/02 A2973 RMK A01 T02640019  RH  020%=      5-min Rain = 0
KPD2 281612Z 27012G18KT 26/01 A2974 RMK A01 T02640010  RH  019%=      5-min Rain = 0
KPD2 281613Z 27009G15KT 26/00 A2973 RMK A01 T02620002  RH  018%=      5-min Rain = 0
KPD2 281614Z 26013G19KT 26/01 A2973 RMK A01 T02600006  RH  019%=      5-min Rain = 0
KPD2 281615Z 30009G14KT 26/01 A2973 RMK A01 T02600008  RH  019%=      5-min Rain = 0
KPD2 281616Z 29007KT 26/01 A2974 RMK A01 T02600013  RH  020%=      5-min Rain = 0
KPD2 281617Z 28009G14KT 26/01 A2973 RMK A01 T02610012  RH  020%=      5-min Rain = 0
KPD2 281618Z 29006KT 26/02 A2973 RMK A01 T02620016  RH  020%=      5-min Rain = 0
KPD2 281619Z 28007G13KT 26/02 A2973 RMK A01 T02640021  RH  021%=      5-min Rain = 0
KPD2 281620Z 30009G14KT 27/02 A2973 RMK A01 T02660024  RH  021%=      5-min Rain = 0
KPD2 281621Z 31013G18KT 27/02 A2973 RMK A01 T02670016  RH  020%=      5-min Rain = 0
KPD2 281622Z 30013G20KT 27/01 A2973 RMK A01 T02670012  RH  019%=      5-min Rain = 0
KPD2 281623Z 30013KT 26/01 A2973 RMK A01 T02640005  RH  018%=      5-min Rain = 0
KPD2 281624Z 30013G20KT 26/01 A2973 RMK A01 T02620009  RH  019%=      5-min Rain = 0
KPD2 281625Z 30011KT 26/01 A2974 RMK A01 T02620009  RH  019%=      5-min Rain = 0
KPD2 281626Z 29010G16KT 26/01 A2974 RMK A01 T02610006  RH  019%=      5-min Rain = 0
KPD2 281627Z 31011G17KT 26/02 A2974 RMK A01 T02620019  RH  021%=      5-min Rain = 0
KPD2 281628Z 29010KT 26/01 A2974 RMK A01 T02640009  RH  019%=      5-min Rain = 0
KPD2 281629Z 29014G20KT 26/01 A2974 RMK A01 T02640007  RH  019%=      5-min Rain = 0
KPD2 281630Z 29013G20KT 26/01 A2974 RMK A01 T02620005  RH  019%=      5-min Rain = 0
KPD2 281631Z 30015G22KT 26/00 A2973 RMK A01 T02610000  RH  018%=      5-min Rain = 0
KPD2 281632Z 28011G16KT 26/00 A2973 RMK A01 T025900-0  RH  018%=      5-min Rain = 0
KPD2 281633Z 29005G11KT 26/00 A2973 RMK A01 T02580004  RH  019%=      5-min Rain = 0
KPD2 281634Z 28009KT 26/01 A2973 RMK A01 T02590010  RH  020%=      5-min Rain = 0
KPD2 281635Z 30010KT 26/01 A2973 RMK A01 T02600014  RH  020%=      5-min Rain = 0
KPD2 281636Z 30014G22KT 26/01 A2973 RMK A01 T02620009  RH  019%=      5-min Rain = 0
KPD2 281637Z 31010G16KT 26/01 A2973 RMK A01 T02620005  RH  019%=      5-min Rain = 0
KPD2 281638Z 31010G18KT 26/01 A2973 RMK A01 T02610011  RH  020%=      5-min Rain = 0
KPD2 281639Z 28015G24KT 26/01 A2973 RMK A01 T02620009  RH  019%=      5-min Rain = 0
KPD2 281640Z 28010G16KT 26/01 A2973 RMK A01 T02620006  RH  019%=      5-min Rain = 0
KPD2 281641Z 30009G15KT 26/02 A2973 RMK A01 T02620018  RH  020%=      5-min Rain = 0
KPD2 281642Z 29006KT 26/02 A2973 RMK A01 T02640015  RH  020%=      5-min Rain = 0
KPD2 281643Z 31008G13KT 27/02 A2973 RMK A01 T02650017  RH  020%=      5-min Rain = 0
KPD2 281644Z 29005G10KT 27/02 A2973 RMK A01 T02660017  RH  020%=      5-min Rain = 0
KPD2 281645Z 28011KT 27/02 A2973 RMK A01 T02670018  RH  020%=      5-min Rain = 0
KPD2 281646Z 30009G14KT 27/01 A2973 RMK A01 T02670012  RH  019%=      5-min Rain = 0
KPD2 281647Z 27008KT 27/02 A2973 RMK A01 T02670020  RH  020%=      5-min Rain = 0
KPD2 281648Z 30008KT 27/02 A2973 RMK A01 T02680020  RH  020%=      5-min Rain = 0
KPD2 281649Z 28006KT 27/03 A2973 RMK A01 T02700027  RH  021%=      5-min Rain = 0
KPD2 281650Z 27005KT 27/03 A2973 RMK A01 T02720029  RH  021%=      5-min Rain = 0
KPD2 281651Z 30011G20KT 27/02 A2973 RMK A01 T02740024  RH  020%=      5-min Rain = 0
KPD2 281652Z 32013G20KT 27/01 A2973 RMK A01 T02730014  RH  019%=      5-min Rain = 0
KPD2 281653Z 31013G19KT 27/01 A2972 RMK A01 T02720014  RH  019%=      5-min Rain = 0
KPD2 281654Z 30011KT 27/01 A2972 RMK A01 T02710012  RH  019%=      5-min Rain = 0
KPD2 281655Z 30010G15KT 27/02 A2973 RMK A01 T02700017  RH  019%=      5-min Rain = 0
KPD2 281656Z 30014KT 27/02 A2973 RMK A01 T02690016  RH  019%=      5-min Rain = 0
KPD2 281657Z 30008G13KT 27/01 A2973 RMK A01 T02690012  RH  019%=      5-min Rain = 0
KPD2 281658Z 29011KT 27/02 A2973 RMK A01 T02690015  RH  019%=      5-min Rain = 0
KPD2 281659Z 30011G17KT 27/02 A2973 RMK A01 T02700018  RH  020%=      5-min Rain = 0
KPD2 281700Z 31014G22KT 27/01 A2973 RMK A01 T02710011  RH  018%=      5-min Rain = 0
KPD2 281701Z 30011G18KT 27/01 A2973 RMK A01 T02690006  RH  018%=      5-min Rain = 0
KPD2 281702Z 31010KT 27/01 A2973 RMK A01 T02670010  RH  019%=      5-min Rain = 0
KPD2 281703Z 30014G22KT 27/02 A2973 RMK A01 T02680017  RH  020%=      5-min Rain = 0
KPD2 281704Z 31015G23KT 27/01 A2972 RMK A01 T02680009  RH  018%=      5-min Rain = 0
KPD2 281705Z 31013G21KT 27/01 A2973 RMK A01 T02680014  RH  019%=      5-min Rain = 0
KPD2 281706Z 28009KT 27/01 A2973 RMK A01 T02680014  RH  019%=      5-min Rain = 0
KPD2 281707Z 32012G21KT 27/02 A2973 RMK A01 T02680016  RH  019%=      5-min Rain = 0
KPD2 281708Z 31011G19KT 27/01 A2972 RMK A01 T02690013  RH  019%=      5-min Rain = 0
KPD2 281709Z 26011G17KT 27/01 A2973 RMK A01 T02690014  RH  019%=      5-min Rain = 0
KPD2 281710Z 27012KT 27/01 A2973 RMK A01 T02700014  RH  019%=      5-min Rain = 0
KPD2 281711Z 26012G18KT 27/02 A2973 RMK A01 T02710019  RH  020%=      5-min Rain = 0
KPD2 281712Z 28013G19KT 27/01 A2973 RMK A01 T02710014  RH  019%=      5-min Rain = 0
KPD2 281713Z 28014G21KT 27/01 A2973 RMK A01 T02690010  RH  019%=      5-min Rain = 0
KPD2 281714Z 31013G18KT 27/02 A2973 RMK A01 T02670015  RH  019%=      5-min Rain = 0
KPD2 281715Z 30015G20KT 27/01 A2973 RMK A01 T02670011  RH  019%=      5-min Rain = 0
KPD2 281716Z 30016G23KT 27/02 A2973 RMK A01 T02690015  RH  019%=      5-min Rain = 0
KPD2 281717Z 28010G15KT 27/01 A2973 RMK A01 T02690006  RH  018%=      5-min Rain = 0
KPD2 281718Z 32006G13KT 27/02 A2973 RMK A01 T02670019  RH  020%=      5-min Rain = 0
KPD2 281719Z 30015G21KT 27/02 A2973 RMK A01 T02700017  RH  019%=      5-min Rain = 0
KPD2 281720Z 29011G17KT 27/01 A2973 RMK A01 T02710014  RH  019%=      5-min Rain = 0
KPD2 281721Z 30010KT 27/01 A2973 RMK A01 T02720010  RH  018%=      5-min Rain = 0
KPD2 281722Z 29009G14KT 27/01 A2973 RMK A01 T02720012  RH  018%=      5-min Rain = 0
KPD2 281723Z 29010G17KT 27/02 A2973 RMK A01 T02730024  RH  020%=      5-min Rain = 0
KPD2 281724Z 31014G23KT 28/02 A2973 RMK A01 T02750015  RH  019%=      5-min Rain = 0
KPD2 281725Z 31015G20KT 27/01 A2973 RMK A01 T02730014  RH  019%=      5-min Rain = 0
KPD2 281726Z 30014G24KT 27/01 A2973 RMK A01 T02710011  RH  018%=      5-min Rain = 0
KPD2 281727Z 30018G24KT 27/01 A2973 RMK A01 T02710010  RH  018%=      5-min Rain = 0
KPD2 281728Z 30015G23KT 27/01 A2973 RMK A01 T02710010  RH  018%=      5-min Rain = 0
KPD2 281729Z 30015KT 27/01 A2973 RMK A01 T02710012  RH  019%=      5-min Rain = 0
KPD2 281730Z 29013G19KT 27/01 A2973 RMK A01 T02710014  RH  019%=      5-min Rain = 0
KPD2 281731Z 29014G21KT 27/01 A2973 RMK A01 T02710011  RH  018%=      5-min Rain = 0
KPD2 281732Z 29015G22KT 27/01 A2973 RMK A01 T02710008  RH  018%=      5-min Rain = 0
KPD2 281733Z 30013G18KT 27/02 A2973 RMK A01 T02700017  RH  019%=      5-min Rain = 0
KPD2 281734Z 28014G20KT 27/01 A2973 RMK A01 T02720014  RH  019%=      5-min Rain = 0
KPD2 281735Z 26011G19KT 27/01 A2973 RMK A01 T02720011  RH  018%=      5-min Rain = 0
KPD2 281736Z 28011G17KT 27/01 A2973 RMK A01 T02730012  RH  018%=      5-min Rain = 0
KPD2 281737Z 30010G15KT 27/02 A2973 RMK A01 T02730019  RH  019%=      5-min Rain = 0
KPD2 281738Z 30014G21KT 27/02 A2973 RMK A01 T02740018  RH  019%=      5-min Rain = 0
KPD2 281739Z 30013G18KT 28/02 A2973 RMK A01 T02750015  RH  019%=      5-min Rain = 0
KPD2 281740Z 26014G20KT 27/01 A2973 RMK A01 T02740011  RH  018%=      5-min Rain = 0
KPD2 281741Z 27015G22KT 27/01 A2973 RMK A01 T02740007  RH  018%=      5-min Rain = 0
KPD2 281742Z 29010G16KT 27/01 A2973 RMK A01 T02730014  RH  019%=      5-min Rain = 0
KPD2 281743Z 27009G18KT 27/01 A2973 RMK A01 T02740013  RH  018%=      5-min Rain = 0
KPD2 281744Z 28013KT 28/01 A2973 RMK A01 T02750011  RH  018%=      5-min Rain = 0
KPD2 281745Z 28012G18KT 27/01 A2973 RMK A01 T02740012  RH  018%=      5-min Rain = 0
KPD2 281746Z 29012KT 27/01 A2973 RMK A01 T02730012  RH  018%=      5-min Rain = 0
KPD2 281747Z 30016G22KT 27/01 A2973 RMK A01 T02730009  RH  018%=      5-min Rain = 0
KPD2 281748Z 27012G18KT 27/01 A2974 RMK A01 T02730009  RH  018%=      5-min Rain = 0
KPD2 281749Z 29017G22KT 27/01 A2973 RMK A01 T02720010  RH  018%=      5-min Rain = 0
KPD2 281750Z 29012G20KT 27/01 A2973 RMK A01 T02700005  RH  018%=      5-min Rain = 0
KPD2 281751Z 27008G16KT 27/02 A2973 RMK A01 T02710024  RH  020%=      5-min Rain = 0
KPD2 281752Z 30010G19KT 27/01 A2973 RMK A01 T02740013  RH  018%=      5-min Rain = 0
KPD2 281753Z 30014G20KT 27/01 A2973 RMK A01 T02740013  RH  018%=      5-min Rain = 0
KPD2 281754Z 30012G20KT 27/01 A2973 RMK A01 T02740014  RH  019%=      5-min Rain = 0
KPD2 281755Z 30007G12KT 28/02 A2973 RMK A01 T02750017  RH  019%=      5-min Rain = 0
KPD2 281756Z 29013G23KT 28/02 A2973 RMK A01 T02760018  RH  019%=      5-min Rain = 0
KPD2 281757Z 28015G24KT 28/01 A2973 RMK A01 T02760009  RH  018%=      5-min Rain = 0
KPD2 281758Z 29009KT 28/01 A2973 RMK A01 T02750009  RH  018%=      5-min Rain = 0
KPD2 281759Z 31009G15KT 28/02 A2973 RMK A01 T02750019  RH  019%=      5-min Rain = 0
KPD2 281800Z 30014KT 28/02 A2973 RMK A01 T02770015  RH  018%=      5-min Rain = 0
KPD2 281801Z 29009KT 28/01 A2973 RMK A01 T02780011  RH  018%=      5-min Rain = 0
KPD2 281802Z 31012G19KT 28/01 A2973 RMK A01 T02780013  RH  018%=      5-min Rain = 0
KPD2 281803Z 28012G17KT 28/02 A2973 RMK A01 T02790021  RH  019%=      5-min Rain = 0
KPD2 281804Z 27007KT 28/02 A2973 RMK A01 T02810020  RH  019%=      5-min Rain = 0
KPD2 281805Z 30013G22KT 28/02 A2973 RMK A01 T02820017  RH  018%=      5-min Rain = 0
KPD2 281806Z 27015G24KT 28/01 A2973 RMK A01 T02830009  RH  017%=      5-min Rain = 0
KPD2 281807Z 28014KT 28/M00 A2973 RMK A01 T02781001  RH  016%=      5-min Rain = 0
KPD2 281808Z 27013KT 28/00 A2973 RMK A01 T02750001  RH  017%=      5-min Rain = 0
KPD2 281809Z 28009G14KT 27/00 A2973 RMK A01 T02740000  RH  017%=      5-min Rain = 0
KPD2 281810Z 28015G22KT 27/M00 A2973 RMK A01 T02741003  RH  016%=      5-min Rain = 0
KPD2 281811Z 28014G19KT 27/M00 A2973 RMK A01 T02731001  RH  017%=      5-min Rain = 0
KPD2 281812Z 26014KT 27/00 A2973 RMK A01 T02720003  RH  017%=      5-min Rain = 0
KPD2 281813Z 26011G16KT 27/01 A2973 RMK A01 T02720008  RH  018%=      5-min Rain = 0
KPD2 281814Z 25012KT 27/01 A2973 RMK A01 T02740013  RH  018%=      5-min Rain = 0
KPD2 281815Z 28010G15KT 28/02 A2972 RMK A01 T02760017  RH  019%=      5-min Rain = 0
KPD2 281816Z 29009G19KT 28/03 A2973 RMK A01 T02800025  RH  019%=      5-min Rain = 0
KPD2 281817Z 28013KT 28/02 A2973 RMK A01 T02820016  RH  018%=      5-min Rain = 0
KPD2 281818Z 28012G17KT 28/00 A2973 RMK A01 T02800003  RH  016%=      5-min Rain = 0
KPD2 281819Z 28012G17KT 28/00 A2973 RMK A01 T02770003  RH  017%=      5-min Rain = 0
KPD2 281820Z 31011KT 28/01 A2973 RMK A01 T02750006  RH  017%=      5-min Rain = 0
KPD2 281821Z 30010G18KT 28/01 A2973 RMK A01 T02770011  RH  018%=      5-min Rain = 0
KPD2 281822Z 30014G20KT 28/01 A2972 RMK A01 T02790009  RH  017%=      5-min Rain = 0
KPD2 281823Z 31016G25KT 28/01 A2972 RMK A01 T02790005  RH  017%=      5-min Rain = 0
KPD2 281824Z 31016G24KT 28/01 A2972 RMK A01 T02790005  RH  017%=      5-min Rain = 0
KPD2 281825Z 30013G19KT 28/01 A2972 RMK A01 T02790006  RH  017%=      5-min Rain = 0
KPD2 281826Z 28006G12KT 28/01 A2972 RMK A01 T02790014  RH  018%=      5-min Rain = 0
KPD2 281827Z 30011G19KT 28/02 A2972 RMK A01 T02820018  RH  018%=      5-min Rain = 0
KPD2 281828Z 28011G17KT 28/01 A2973 RMK A01 T02830010  RH  017%=      5-min Rain = 0
KPD2 281829Z 28010G15KT 28/01 A2973 RMK A01 T02810005  RH  017%=      5-min Rain = 0
KPD2 281830Z 26006KT 28/02 A2973 RMK A01 T02780015  RH  018%=      5-min Rain = 0
KPD2 281831Z 25006G11KT 28/02 A2972 RMK A01 T02790017  RH  018%=      5-min Rain = 0
KPD2 281832Z 29012G19KT 28/01 A2972 RMK A01 T02810012  RH  018%=      5-min Rain = 0
KPD2 281833Z 29014G22KT 28/01 A2972 RMK A01 T02800008  RH  017%=      5-min Rain = 0
KPD2 281834Z 28011G19KT 28/00 A2972 RMK A01 T02780003  RH  017%=      5-min Rain = 0
KPD2 281835Z 28014G19KT 28/00 A2973 RMK A01 T02760002  RH  017%=      5-min Rain = 0
KPD2 281836Z 30014G21KT 28/00 A2972 RMK A01 T02760004  RH  017%=      5-min Rain = 0
KPD2 281837Z 28011G18KT 28/01 A2972 RMK A01 T02770008  RH  017%=      5-min Rain = 0
KPD2 281838Z 29010KT 28/01 A2972 RMK A01 T02790009  RH  017%=      5-min Rain = 0
KPD2 281839Z 30013G19KT 28/01 A2972 RMK A01 T02810011  RH  017%=      5-min Rain = 0
KPD2 281840Z 28011G18KT 28/01 A2973 RMK A01 T02810006  RH  017%=      5-min Rain = 0
KPD2 281841Z 28014G22KT 28/00 A2973 RMK A01 T02810003  RH  016%=      5-min Rain = 0
KPD2 281842Z 31010G15KT 28/01 A2972 RMK A01 T02790008  RH  017%=      5-min Rain = 0
KPD2 281843Z 28012G18KT 28/01 A2972 RMK A01 T02800010  RH  017%=      5-min Rain = 0
KPD2 281844Z 30011KT 28/01 A2972 RMK A01 T02810014  RH  018%=      5-min Rain = 0
KPD2 281845Z 28013G22KT 28/01 A2973 RMK A01 T02820009  RH  017%=      5-min Rain = 0
KPD2 281846Z 27012G18KT 28/00 A2972 RMK A01 T02810001  RH  016%=      5-min Rain = 0
KPD2 281847Z 28009KT 28/00 A2972 RMK A01 T02790002  RH  016%=      5-min Rain = 0
KPD2 281848Z 27009KT 28/01 A2972 RMK A01 T02790011  RH  018%=      5-min Rain = 0
KPD2 281849Z 25009G16KT 28/01 A2972 RMK A01 T02810013  RH  018%=      5-min Rain = 0
KPD2 281850Z 26011G16KT 28/01 A2972 RMK A01 T02840009  RH  017%=      5-min Rain = 0
KPD2 281851Z 27009KT 28/01 A2973 RMK A01 T02840007  RH  017%=      5-min Rain = 0
KPD2 281852Z 28007KT 28/01 A2972 RMK A01 T02840006  RH  016%=      5-min Rain = 0
KPD2 281853Z 26009G19KT 29/01 A2972 RMK A01 T02850009  RH  017%=      5-min Rain = 0
KPD2 281854Z 25012G19KT 29/00 A2972 RMK A01 T02850003  RH  016%=      5-min Rain = 0
KPD2 281855Z 27011G17KT 28/00 A2972 RMK A01 T02840004  RH  016%=      5-min Rain = 0
KPD2 281856Z 27012G18KT 28/00 A2972 RMK A01 T02830000  RH  016%=      5-min Rain = 0
KPD2 281857Z 28012G17KT 28/M00 A2972 RMK A01 T02821003  RH  016%=      5-min Rain = 0
KPD2 281858Z 28010KT 28/01 A2972 RMK A01 T02800007  RH  017%=      5-min Rain = 0
KPD2 281859Z 29011G17KT 28/00 A2972 RMK A01 T02810004  RH  017%=      5-min Rain = 0
KPD2 281900Z 31011G17KT 28/01 A2972 RMK A01 T02820007  RH  017%=      5-min Rain = 0
KPD2 281901Z 29011G18KT 28/01 A2972 RMK A01 T02830008  RH  017%=      5-min Rain = 0
KPD2 281902Z 31009G15KT 28/01 A2972 RMK A01 T02830009  RH  017%=      5-min Rain = 0
KPD2 281903Z 30010KT 28/01 A2972 RMK A01 T02830013  RH  017%=      5-min Rain = 0
KPD2 281904Z 27005G10KT 28/01 A2972 RMK A01 T02840013  RH  017%=      5-min Rain = 0
KPD2 281905Z 29006KT 28/01 A2972 RMK A01 T02830012  RH  017%=      5-min Rain = 0
KPD2 281906Z 29009KT 28/01 A2972 RMK A01 T02830014  RH  018%=      5-min Rain = 0
KPD2 281907Z 27009KT 28/01 A2972 RMK A01 T02820014  RH  018%=      5-min Rain = 0
KPD2 281908Z 27010G16KT 28/02 A2972 RMK A01 T02830018  RH  018%=      5-min Rain = 0
KPD2 281909Z 28016KT 29/01 A2972 RMK A01 T02850007  RH  017%=      5-min Rain = 0
KPD2 281910Z 27013G20KT 28/00 A2972 RMK A01 T028400-0  RH  016%=      5-min Rain = 0
KPD2 281911Z 27012G17KT 28/M00 A2972 RMK A01 T02821001  RH  016%=      5-min Rain = 0
KPD2 281912Z 28007KT 28/00 A2972 RMK A01 T02810004  RH  017%=      5-min Rain = 0
KPD2 281913Z 28010G15KT 28/00 A2972 RMK A01 T02810004  RH  017%=      5-min Rain = 0
KPD2 281914Z 28009G14KT 28/01 A2971 RMK A01 T02810006  RH  017%=      5-min Rain = 0
KPD2 281915Z 25009G16KT 28/01 A2971 RMK A01 T02800006  RH  017%=      5-min Rain = 0
KPD2 281916Z 25011G21KT 28/01 A2971 RMK A01 T02800007  RH  017%=      5-min Rain = 0
KPD2 281917Z 27013G18KT 28/01 A2971 RMK A01 T02810009  RH  017%=      5-min Rain = 0
KPD2 281918Z 28013G18KT 28/01 A2971 RMK A01 T02810010  RH  017%=      5-min Rain = 0
KPD2 281919Z 27016G22KT 28/01 A2971 RMK A01 T02820011  RH  017%=      5-min Rain = 0
KPD2 281920Z 29016G22KT 28/00 A2971 RMK A01 T02830004  RH  016%=      5-min Rain = 0
KPD2 281921Z 26012G17KT 28/00 A2972 RMK A01 T02830002  RH  016%=      5-min Rain = 0
KPD2 281922Z 26008KT 28/01 A2972 RMK A01 T02810007  RH  017%=      5-min Rain = 0
KPD2 281923Z 25014G20KT 28/01 A2972 RMK A01 T02820008  RH  017%=      5-min Rain = 0
KPD2 281924Z 26010G16KT 28/00 A2971 RMK A01 T02830003  RH  016%=      5-min Rain = 0
KPD2 281925Z 28008KT 28/01 A2971 RMK A01 T02830009  RH  017%=      5-min Rain = 0
KPD2 281926Z 28005KT 29/02 A2971 RMK A01 T02860019  RH  018%=      5-min Rain = 0
KPD2 281927Z 28010G16KT 29/02 A2971 RMK A01 T02890016  RH  017%=      5-min Rain = 0
KPD2 281928Z 27010G19KT 29/01 A2971 RMK A01 T02890008  RH  016%=      5-min Rain = 0
KPD2 281929Z 25004KT 29/01 A2971 RMK A01 T02880011  RH  017%=      5-min Rain = 0
KPD2 281930Z 28007G13KT 29/02 A2971 RMK A01 T02890018  RH  017%=      5-min Rain = 0
KPD2 281931Z 27007KT 29/01 A2971 RMK A01 T02910010  RH  016%=      5-min Rain = 0
KPD2 281932Z 22006KT 29/01 A2971 RMK A01 T02900009  RH  016%=      5-min Rain = 0
KPD2 281933Z 26005KT 29/02 A2971 RMK A01 T02900018  RH  017%=      5-min Rain = 0
KPD2 281934Z 25004KT 29/02 A297 RMK A01 T02920021  RH  017%=      5-min Rain = 0
KPD2 281935Z 29010G15KT 29/02 A2971 RMK A01 T02940016  RH  017%=      5-min Rain = 0
KPD2 281936Z 29008G16KT 29/01 A297 RMK A01 T02940013  RH  016%=      5-min Rain = 0
KPD2 281937Z 30011G17KT 29/01 A297 RMK A01 T02940005  RH  015%=      5-min Rain = 0
KPD2 281938Z 29012KT 29/01 A2971 RMK A01 T02920005  RH  016%=      5-min Rain = 0
KPD2 281939Z 30015G20KT 29/00 A2971 RMK A01 T02900004  RH  016%=      5-min Rain = 0
KPD2 281940Z 29009G18KT 29/M00 A2971 RMK A01 T02861002  RH  015%=      5-min Rain = 0
KPD2 281941Z 28008G14KT 29/01 A2971 RMK A01 T02850006  RH  016%=      5-min Rain = 0
KPD2 281942Z 28011KT 29/00 A297 RMK A01 T02860003  RH  016%=      5-min Rain = 0
KPD2 281943Z 30010KT 29/01 A297 RMK A01 T02860006  RH  016%=      5-min Rain = 0
KPD2 281944Z 28004G10KT 29/01 A297 RMK A01 T02870009  RH  017%=      5-min Rain = 0
KPD2 281945Z 28005KT 29/02 A297 RMK A01 T02900018  RH  017%=      5-min Rain = 0
KPD2 281946Z 27013G19KT 29/01 A297 RMK A01 T02930014  RH  017%=      5-min Rain = 0
KPD2 281947Z 26008G16KT 29/01 A2971 RMK A01 T02930010  RH  016%=      5-min Rain = 0
KPD2 281948Z 29007G12KT 29/01 A2971 RMK A01 T02930014  RH  017%=      5-min Rain = 0
KPD2 281949Z 29012G17KT 29/01 A2971 RMK A01 T02940007  RH  016%=      5-min Rain = 0
KPD2 281950Z 29011G17KT 29/00 A297 RMK A01 T02930001  RH  015%=      5-min Rain = 0
KPD2 281951Z 30010G15KT 29/00 A297 RMK A01 T02910000  RH  015%=      5-min Rain = 0
KPD2 281952Z 29011KT 29/M01 A297 RMK A01 T02901005  RH  015%=      5-min Rain = 0
KPD2 281953Z 28009G15KT 29/M00 A297 RMK A01 T02871002  RH  015%=      5-min Rain = 0
KPD2 281954Z 29010G16KT 29/01 A297 RMK A01 T02880010  RH  017%=      5-min Rain = 0
KPD2 281955Z 29010KT 29/00 A297 RMK A01 T02920003  RH  015%=      5-min Rain = 0
KPD2 281956Z 25007G13KT 29/00 A297 RMK A01 T02930004  RH  015%=      5-min Rain = 0
KPD2 281957Z 26005KT 29/M00 A297 RMK A01 T02921001  RH  015%=      5-min Rain = 0
KPD2 281958Z 25005G13KT 29/01 A297 RMK A01 T02920010  RH  016%=      5-min Rain = 0
KPD2 281959Z 23011KT 30/01 A297 RMK A01 T02950009  RH  016%=      5-min Rain = 0
KPD2 282000Z 23009G15KT 30/00 A297 RMK A01 T029500-0  RH  015%=      5-min Rain = 0
KPD2 282001Z 22006KT 30/01 A297 RMK A01 T02950005  RH  015%=      5-min Rain = 0
KPD2 282002Z 27006G11KT 30/01 A297 RMK A01 T02950005  RH  015%=      5-min Rain = 0
KPD2 282003Z 25008G16KT 30/01 A297 RMK A01 T02960012  RH  016%=      5-min Rain = 0
KPD2 282004Z 25005KT 30/01 A297 RMK A01 T02990012  RH  016%=      5-min Rain = 0
KPD2 282005Z 24010KT 30/00 A297 RMK A01 T02990001  RH  015%=      5-min Rain = 0
KPD2 282006Z 24009G16KT 30/M00 A297 RMK A01 T02971004  RH  014%=      5-min Rain = 0
KPD2 282007Z 24006KT 29/00 A297 RMK A01 T02940004  RH  015%=      5-min Rain = 0
KPD2 282008Z 27006G11KT 30/01 A297 RMK A01 T02950012  RH  016%=      5-min Rain = 0
KPD2 282009Z 25010KT 30/02 A297 RMK A01 T02980015  RH  016%=      5-min Rain = 0
KPD2 282010Z 23011G18KT 30/M00 A297 RMK A01 T02991002  RH  014%=      5-min Rain = 0
KPD2 282011Z 22013KT 30/M01 A297 RMK A01 T02961007  RH  014%=      5-min Rain = 0
KPD2 282012Z 23013G18KT 29/M01 A297 RMK A01 T02931007  RH  014%=      5-min Rain = 0
KPD2 282013Z 22010KT 29/00 A297 RMK A01 T029200-0  RH  015%=      5-min Rain = 0
KPD2 282014Z 28004G16KT 29/01 A297 RMK A01 T02920006  RH  016%=      5-min Rain = 0
KPD2 282015Z 29012G20KT 30/00 A297 RMK A01 T02950003  RH  015%=      5-min Rain = 0
KPD2 282016Z 28012G19KT 30/M00 A297 RMK A01 T02951002  RH  015%=      5-min Rain = 0
KPD2 282017Z 27012G21KT 29/M00 A297 RMK A01 T02931002  RH  015%=      5-min Rain = 0
KPD2 282018Z 25006KT 29/00 A297 RMK A01 T02920002  RH  015%=      5-min Rain = 0
KPD2 282019Z 25008G13KT 29/01 A297 RMK A01 T02930011  RH  016%=      5-min Rain = 0
KPD2 282020Z 25008G13KT 30/01 A297 RMK A01 T02950008  RH  016%=      5-min Rain = 0
KPD2 282021Z 25009KT 30/01 A297 RMK A01 T02960005  RH  015%=      5-min Rain = 0
KPD2 282022Z 26010G15KT 30/01 A297 RMK A01 T02970008  RH  016%=      5-min Rain = 0
KPD2 282023Z 25008KT 30/01 A297 RMK A01 T02980006  RH  015%=      5-min Rain = 0
KPD2 282024Z 24006KT 30/00 A297 RMK A01 T02980004  RH  015%=      5-min Rain = 0
KPD2 282025Z 24005G10KT 30/01 A297 RMK A01 T02990012  RH  016%=      5-min Rain = 0
KPD2 282026Z 24005KT 30/01 A2969 RMK A01 T03020014  RH  016%=      5-min Rain = 0
KPD2 282027Z 29009G16KT 30/01 A2969 RMK A01 T03030010  RH  015%=      5-min Rain = 0
KPD2 282028Z 25010G15KT 30/01 A2969 RMK A01 T03030009  RH  015%=      5-min Rain = 0
KPD2 282029Z 25006G11KT 30/01 A2969 RMK A01 T03020006  RH  015%=      5-min Rain = 0
KPD2 282030Z 28007G18KT 30/02 A2969 RMK A01 T03020015  RH  016%=      5-min Rain = 0
KPD2 282031Z 28015G21KT 30/01 A297 RMK A01 T03030010  RH  015%=      5-min Rain = 0
KPD2 282032Z 26014KT 30/00 A297 RMK A01 T03020000  RH  014%=      5-min Rain = 0
KPD2 282033Z 28014KT 30/M00 A297 RMK A01 T02991001  RH  014%=      5-min Rain = 0
KPD2 282034Z 26011G19KT 30/M00 A297 RMK A01 T02961004  RH  014%=      5-min Rain = 0
KPD2 282035Z 27010G18KT 29/M00 A297 RMK A01 T02941003  RH  015%=      5-min Rain = 0
KPD2 282036Z 30009G16KT 29/00 A297 RMK A01 T02930003  RH  015%=      5-min Rain = 0
KPD2 282037Z 28012G18KT 29/M01 A297 RMK A01 T02921006  RH  014%=      5-min Rain = 0
KPD2 282038Z 28009G16KT 29/M01 A297 RMK A01 T02901010  RH  014%=      5-min Rain = 0
KPD2 282039Z 28010G17KT 29/M01 A297 RMK A01 T02871014  RH  014%=      5-min Rain = 0
KPD2 282040Z 27009KT 28/M02 A297 RMK A01 T02841016  RH  014%=      5-min Rain = 0
KPD2 282041Z 25005G10KT 28/M01 A297 RMK A01 T02831005  RH  015%=      5-min Rain = 0
KPD2 282042Z 28011G18KT 28/00 A297 RMK A01 T028300-0  RH  016%=      5-min Rain = 0
KPD2 282043Z 25009KT 29/M01 A297 RMK A01 T02851006  RH  015%=      5-min Rain = 0
KPD2 282044Z 23010G15KT 29/M00 A297 RMK A01 T02851003  RH  015%=      5-min Rain = 0
KPD2 282045Z 27006G12KT 29/M00 A297 RMK A01 T02861002  RH  015%=      5-min Rain = 0
KPD2 282046Z 25011G18KT 29/00 A297 RMK A01 T028800-0  RH  015%=      5-min Rain = 0
KPD2 282047Z 22007KT 29/00 A297 RMK A01 T02890002  RH  016%=      5-min Rain = 0
KPD2 282048Z 22013KT 29/M00 A297 RMK A01 T02911004  RH  015%=      5-min Rain = 0
KPD2 282049Z 24010G17KT 29/M01 A297 RMK A01 T02901006  RH  015%=      5-min Rain = 0
KPD2 282050Z 23004KT 29/M01 A297 RMK A01 T02891007  RH  015%=      5-min Rain = 0
KPD2 282051Z 28007KT 29/01 A297 RMK A01 T02900005  RH  016%=      5-min Rain = 0
KPD2 282052Z 24010G16KT 29/00 A297 RMK A01 T029200-0  RH  015%=      5-min Rain = 0
KPD2 282053Z 21013G19KT 29/M00 A297 RMK A01 T02921004  RH  015%=      5-min Rain = 0
KPD2 282054Z 23013G19KT 29/M01 A297 RMK A01 T02911006  RH  015%=      5-min Rain = 0
KPD2 282055Z 23009G15KT 29/M01 A297 RMK A01 T02901006  RH  015%=      5-min Rain = 0
KPD2 282056Z 27007G14KT 29/M00 A297 RMK A01 T02901001  RH  015%=      5-min Rain = 0
KPD2 282057Z 27009G14KT 29/M00 A297 RMK A01 T02911001  RH  015%=      5-min Rain = 0
KPD2 282058Z 28011KT 29/M00 A297 RMK A01 T02911003  RH  015%=      5-min Rain = 0
KPD2 282059Z 28011G17KT 29/00 A2969 RMK A01 T02910002  RH  015%=      5-min Rain = 0
KPD2 282100Z 27005G10KT 29/00 A297 RMK A01 T02920000  RH  015%=      5-min Rain = 0
KPD2 282101Z 26011G17KT 29/01 A2969 RMK A01 T02940006  RH  016%=      5-min Rain = 0
KPD2 282102Z 25009G16KT 30/00 A297 RMK A01 T02950000  RH  015%=      5-min Rain = 0
KPD2 282103Z 26010G15KT 30/M01 A297 RMK A01 T02951008  RH  014%=      5-min Rain = 0
KPD2 282104Z 28007G12KT 29/M01 A297 RMK A01 T02931011  RH  014%=      5-min Rain = 0
KPD2 282105Z 27009G17KT 29/M01 A297 RMK A01 T02911009  RH  014%=      5-min Rain = 0
KPD2 282106Z 28011G17KT 29/M01 A2969 RMK A01 T02901008  RH  014%=      5-min Rain = 0
KPD2 282107Z 28008G15KT 29/M00 A2969 RMK A01 T02911003  RH  015%=      5-min Rain = 0
KPD2 282108Z 26010G15KT 29/M01 A2969 RMK A01 T02921005  RH  015%=      5-min Rain = 0
KPD2 282109Z 29006KT 29/01 A297 RMK A01 T02940011  RH  016%=      5-min Rain = 0
KPD2 282110Z 29006G12KT 30/01 A297 RMK A01 T02980011  RH  016%=      5-min Rain = 0
KPD2 282111Z 29008KT 30/00 A297 RMK A01 T03000004  RH  015%=      5-min Rain = 0
KPD2 282112Z 26007G15KT 30/00 A297 RMK A01 T03010002  RH  015%=      5-min Rain = 0
KPD2 282113Z 25012KT 30/M00 A297 RMK A01 T03011001  RH  014%=      5-min Rain = 0
KPD2 282114Z 25011G17KT 30/M01 A297 RMK A01 T03011009  RH  013%=      5-min Rain = 0
KPD2 282115Z 28009G18KT 30/M01 A2969 RMK A01 T02991006  RH  014%=      5-min Rain = 0
KPD2 282116Z 27011G16KT 30/M01 A2969 RMK A01 T02981008  RH  014%=      5-min Rain = 0
KPD2 282117Z 30009G16KT 30/M01 A2969 RMK A01 T02951010  RH  014%=      5-min Rain = 0
KPD2 282118Z 27005G11KT 30/00 A2969 RMK A01 T02950003  RH  015%=      5-min Rain = 0
KPD2 282119Z 27011G20KT 30/M00 A2969 RMK A01 T02971001  RH  015%=      5-min Rain = 0
KPD2 282120Z 29012G21KT 30/M00 A2969 RMK A01 T02961004  RH  014%=      5-min Rain = 0
KPD2 282121Z 28006KT 29/M00 A2969 RMK A01 T02941003  RH  015%=      5-min Rain = 0
KPD2 282122Z 27010G15KT 29/M01 A297 RMK A01 T02921005  RH  015%=      5-min Rain = 0
KPD2 282123Z 28012G18KT 29/M01 A297 RMK A01 T02891011  RH  014%=      5-min Rain = 0
KPD2 282124Z 28013G19KT 29/M01 A297 RMK A01 T02861013  RH  014%=      5-min Rain = 0
KPD2 282125Z 29016G21KT 29/M02 A297 RMK A01 T02851017  RH  014%=      5-min Rain = 0
KPD2 282126Z 28013G18KT 28/M02 A2969 RMK A01 T02841021  RH  014%=      5-min Rain = 0
KPD2 282127Z 27010G15KT 28/M02 A2969 RMK A01 T02821020  RH  014%=      5-min Rain = 0
KPD2 282128Z 29012G18KT 28/M02 A2969 RMK A01 T02811018  RH  014%=      5-min Rain = 0
KPD2 282129Z 30011G17KT 28/M02 A2969 RMK A01 T02811015  RH  014%=      5-min Rain = 0
KPD2 282130Z 30013G19KT 28/M02 A2969 RMK A01 T02811015  RH  014%=      5-min Rain = 0
KPD2 282131Z 27010G15KT 28/M02 A2969 RMK A01 T02801017  RH  014%=      5-min Rain = 0
KPD2 282132Z 26008G15KT 28/M01 A2969 RMK A01 T02801012  RH  015%=      5-min Rain = 0
KPD2 282133Z 26010G16KT 28/M01 A2969 RMK A01 T02811012  RH  015%=      5-min Rain = 0
KPD2 282134Z 30008G14KT 28/M01 A2969 RMK A01 T02811010  RH  015%=      5-min Rain = 0
KPD2 282135Z 30010G16KT 28/M01 A2969 RMK A01 T02821006  RH  015%=      5-min Rain = 0
KPD2 282136Z 30013G21KT 28/M01 A2969 RMK A01 T02831009  RH  015%=      5-min Rain = 0
KPD2 282137Z 30014G20KT 28/M02 A2969 RMK A01 T02831016  RH  014%=      5-min Rain = 0
KPD2 282138Z 28013G20KT 28/M02 A2969 RMK A01 T02831016  RH  014%=      5-min Rain = 0
KPD2 282139Z 28009KT 28/M02 A297 RMK A01 T02831015  RH  014%=      5-min Rain = 0
KPD2 282140Z 29009KT 28/M01 A2969 RMK A01 T02841013  RH  014%=      5-min Rain = 0
KPD2 282141Z 30008G15KT 28/M01 A2969 RMK A01 T02841014  RH  014%=      5-min Rain = 0
KPD2 282142Z 28011G19KT 28/M01 A2969 RMK A01 T02841010  RH  015%=      5-min Rain = 0
KPD2 282143Z 30012G18KT 28/M02 A297 RMK A01 T02841023  RH  013%=      5-min Rain = 0
KPD2 282144Z 26011KT 28/M02 A297 RMK A01 T02841018  RH  014%=      5-min Rain = 0
KPD2 282145Z 26009KT 28/M02 A2969 RMK A01 T02841024  RH  013%=      5-min Rain = 0
KPD2 282146Z 27007G16KT 28/M01 A2969 RMK A01 T02841007  RH  015%=      5-min Rain = 0
KPD2 282147Z 25012G18KT 29/M02 A2969 RMK A01 T02851017  RH  014%=      5-min Rain = 0
KPD2 282148Z 27008G13KT 29/M03 A297 RMK A01 T02851027  RH  013%=      5-min Rain = 0
KPD2 282149Z 24009G14KT 28/M02 A2969 RMK A01 T02841023  RH  013%=      5-min Rain = 0
KPD2 282150Z 28007KT 28/M02 A2969 RMK A01 T02841019  RH  014%=      5-min Rain = 0
KPD2 282151Z 30009KT 28/M01 A2969 RMK A01 T02841012  RH  014%=      5-min Rain = 0
KPD2 282152Z 26011G18KT 29/M01 A2969 RMK A01 T02851013  RH  014%=      5-min Rain = 0
KPD2 282153Z 28008KT 29/M02 A2969 RMK A01 T02861018  RH  014%=      5-min Rain = 0
KPD2 282154Z 27007KT 29/M02 A2969 RMK A01 T02861015  RH  014%=      5-min Rain = 0
KPD2 282155Z 28009KT 29/M02 A297 RMK A01 T02861021  RH  013%=      5-min Rain = 0
KPD2 282156Z 28012G17KT 29/M02 A2969 RMK A01 T02871023  RH  013%=      5-min Rain = 0
KPD2 282157Z 27009G15KT 29/M02 A2969 RMK A01 T02881016  RH  014%=      5-min Rain = 0
KPD2 282158Z 28010G16KT 29/M02 A2969 RMK A01 T02891023  RH  013%=      5-min Rain = 0
KPD2 282159Z 26010G16KT 29/M02 A2969 RMK A01 T02891023  RH  013%=      5-min Rain = 0
KPD2 282200Z 28009KT 29/M02 A2969 RMK A01 T02901016  RH  014%=      5-min Rain = 0
KPD2 282201Z 27012G19KT 29/M02 A2969 RMK A01 T02931017  RH  013%=      5-min Rain = 0
KPD2 282202Z 28010G16KT 29/M02 A2969 RMK A01 T02941019  RH  013%=      5-min Rain = 0
KPD2 282203Z 27012KT 30/M02 A2969 RMK A01 T02951016  RH  013%=      5-min Rain = 0
KPD2 282204Z 28013G20KT 30/M02 A2969 RMK A01 T02951015  RH  013%=      5-min Rain = 0
KPD2 282205Z 28015G24KT 30/M02 A2969 RMK A01 T02951022  RH  013%=      5-min Rain = 0
KPD2 282206Z 25014KT 29/M03 A2969 RMK A01 T02931027  RH  012%=      5-min Rain = 0
KPD2 282207Z 29012G19KT 29/M03 A2969 RMK A01 T02911029  RH  012%=      5-min Rain = 0
KPD2 282208Z 29012G17KT 29/M03 A2969 RMK A01 T02901034  RH  012%=      5-min Rain = 0
KPD2 282209Z 29008KT 29/M03 A2969 RMK A01 T02891031  RH  012%=      5-min Rain = 0
KPD2 282210Z 29008G15KT 29/M02 A2969 RMK A01 T02891022  RH  013%=      5-min Rain = 0
KPD2 282211Z 28009G17KT 29/M02 A2969 RMK A01 T02911020  RH  013%=      5-min Rain = 0
KPD2 282212Z 29008G13KT 29/M02 A2969 RMK A01 T02931017  RH  013%=      5-min Rain = 0
KPD2 282213Z 30012G20KT 29/M01 A2969 RMK A01 T02941013  RH  014%=      5-min Rain = 0
KPD2 282214Z 27012KT 30/M02 A2969 RMK A01 T02961018  RH  013%=      5-min Rain = 0
KPD2 282215Z 28007KT 30/M02 A2969 RMK A01 T02961016  RH  013%=      5-min Rain = 0
KPD2 282216Z 30009KT 30/M00 A2969 RMK A01 T02971002  RH  014%=      5-min Rain = 0
KPD2 282217Z 28006G12KT 30/00 A2969 RMK A01 T03000000  RH  014%=      5-min Rain = 0
KPD2 282218Z 29008G16KT 30/00 A2969 RMK A01 T030100-0  RH  014%=      5-min Rain = 0
KPD2 282219Z 30009KT 30/M02 A2969 RMK A01 T03021015  RH  013%=      5-min Rain = 0
KPD2 282220Z 29011G17KT 30/M02 A2969 RMK A01 T03011016  RH  013%=      5-min Rain = 0
KPD2 282221Z 30013KT 30/M02 A2969 RMK A01 T03001023  RH  012%=      5-min Rain = 0
KPD2 282222Z 27007G12KT 30/M02 A2968 RMK A01 T02971023  RH  012%=      5-min Rain = 0
KPD2 282223Z 30010G15KT 30/M01 A2968 RMK A01 T02961013  RH  013%=      5-min Rain = 0
KPD2 282224Z 28010G18KT 29/M02 A2968 RMK A01 T02941020  RH  013%=      5-min Rain = 0
KPD2 282225Z 27013G19KT 29/M02 A2968 RMK A01 T02931022  RH  013%=      5-min Rain = 0
KPD2 282226Z 30007KT 29/M02 A2968 RMK A01 T02911023  RH  013%=      5-min Rain = 0
KPD2 282227Z 30009KT 29/M02 A2968 RMK A01 T02891016  RH  014%=      5-min Rain = 0
KPD2 282228Z 28007KT 29/M02 A2969 RMK A01 T02891018  RH  013%=      5-min Rain = 0
KPD2 282229Z 31010G15KT 29/M02 A2968 RMK A01 T02891017  RH  014%=      5-min Rain = 0
KPD2 282230Z 30008G14KT 29/M02 A2968 RMK A01 T02901018  RH  013%=      5-min Rain = 0
KPD2 282231Z 27008KT 29/M01 A2969 RMK A01 T02911007  RH  014%=      5-min Rain = 0
KPD2 282232Z 26011G17KT 29/M02 A2969 RMK A01 T02931016  RH  013%=      5-min Rain = 0
KPD2 282233Z 27015KT 29/M03 A2969 RMK A01 T02931029  RH  012%=      5-min Rain = 0
KPD2 282234Z 26010G16KT 29/M04 A2969 RMK A01 T02911038  RH  011%=      5-min Rain = 0
KPD2 282235Z 25005G10KT 29/M03 A2968 RMK A01 T02901027  RH  013%=      5-min Rain = 0
KPD2 282236Z 26009G14KT 29/M02 A2968 RMK A01 T02921021  RH  013%=      5-min Rain = 0
KPD2 282237Z 30007KT 29/M02 A2968 RMK A01 T02941021  RH  013%=      5-min Rain = 0
KPD2 282238Z 27007KT 30/M01 A2968 RMK A01 T02981009  RH  014%=      5-min Rain = 0
KPD2 282239Z 27012G18KT 30/M01 A2969 RMK A01 T03011014  RH  013%=      5-min Rain = 0
KPD2 282240Z 28009KT 30/M03 A2968 RMK A01 T02981030  RH  012%=      5-min Rain = 0
KPD2 282241Z 29012G18KT 29/M02 A2969 RMK A01 T02941023  RH  013%=      5-min Rain = 0
KPD2 282242Z 29014G20KT 29/M03 A2969 RMK A01 T02921025  RH  013%=      5-min Rain = 0
KPD2 282243Z 28011G18KT 29/M04 A2969 RMK A01 T02891037  RH  012%=      5-min Rain = 0
KPD2 282244Z 27011G16KT 29/M03 A2969 RMK A01 T02881034  RH  012%=      5-min Rain = 0
KPD2 282245Z 29006G12KT 29/M03 A2969 RMK A01 T02891030  RH  012%=      5-min Rain = 0
KPD2 282246Z 29012G20KT 29/M03 A2969 RMK A01 T02911032  RH  012%=      5-min Rain = 0
KPD2 282247Z 29008G13KT 29/M03 A2969 RMK A01 T02931026  RH  012%=      5-min Rain = 0
KPD2 282248Z 27009G18KT 30/M02 A2969 RMK A01 T02951022  RH  013%=      5-min Rain = 0
KPD2 282249Z 26011G20KT 30/M03 A2968 RMK A01 T02961028  RH  012%=      5-min Rain = 0
KPD2 282250Z 26010KT 30/M02 A2968 RMK A01 T02961022  RH  012%=      5-min Rain = 0
KPD2 282251Z 26011KT 30/M02 A2969 RMK A01 T02971019  RH  013%=      5-min Rain = 0
KPD2 282252Z 27008KT 30/M03 A2968 RMK A01 T02981029  RH  012%=      5-min Rain = 0
KPD2 282253Z 26007G12KT 30/M02 A2968 RMK A01 T02971023  RH  012%=      5-min Rain = 0
KPD2 282254Z 26006KT 30/M02 A2968 RMK A01 T02951020  RH  013%=      5-min Rain = 0
KPD2 282255Z 27007KT 29/M02 A2968 RMK A01 T02941016  RH  013%=      5-min Rain = 0
KPD2 282256Z 28007G14KT 29/M03 A2968 RMK A01 T02921026  RH  012%=      5-min Rain = 0
KPD2 282257Z 27011KT 29/M02 A2968 RMK A01 T02921021  RH  013%=      5-min Rain = 0
KPD2 282258Z 29011KT 29/M02 A2969 RMK A01 T02911024  RH  013%=      5-min Rain = 0
KPD2 282259Z 28012KT 29/M03 A2968 RMK A01 T02911033  RH  012%=      5-min Rain = 0
KPD2 282300Z 29011G16KT 29/M04 A2968 RMK A01 T02891036  RH  012%=      5-min Rain = 0
KPD2 282301Z 28011G18KT 29/M03 A2969 RMK A01 T02871031  RH  012%=      5-min Rain = 0
KPD2 282302Z 28009G15KT 29/M04 A2968 RMK A01 T02861035  RH  012%=      5-min Rain = 0
KPD2 282303Z 27014G20KT 29/M03 A2969 RMK A01 T02851033  RH  012%=      5-min Rain = 0
KPD2 282304Z 28012G18KT 28/M03 A2969 RMK A01 T02831032  RH  013%=      5-min Rain = 0
KPD2 282305Z 28011G19KT 28/M03 A2969 RMK A01 T02821032  RH  013%=      5-min Rain = 0
KPD2 282306Z 28008G14KT 28/M03 A2968 RMK A01 T02811027  RH  013%=      5-min Rain = 0
KPD2 282307Z 30009G14KT 28/M02 A2968 RMK A01 T02801024  RH  014%=      5-min Rain = 0
KPD2 282308Z 30009KT 28/M02 A2968 RMK A01 T02801021  RH  014%=      5-min Rain = 0
KPD2 282309Z 29007G12KT 28/M02 A2968 RMK A01 T02801020  RH  014%=      5-min Rain = 0
KPD2 282310Z 29005KT 28/M02 A2968 RMK A01 T02811021  RH  014%=      5-min Rain = 0
KPD2 282311Z 30009G14KT 28/M02 A2968 RMK A01 T02821020  RH  014%=      5-min Rain = 0
KPD2 282312Z 29011G16KT 28/M03 A2968 RMK A01 T02821025  RH  013%=      5-min Rain = 0
KPD2 282313Z 30011KT 28/M03 A2968 RMK A01 T02811030  RH  013%=      5-min Rain = 0
KPD2 282314Z 31008KT 28/M03 A2968 RMK A01 T02801025  RH  014%=      5-min Rain = 0
KPD2 282315Z 32007KT 28/M02 A2968 RMK A01 T02801020  RH  014%=      5-min Rain = 0
KPD2 282316Z 30008G16KT 28/M01 A2968 RMK A01 T02841007  RH  015%=      5-min Rain = 0
KPD2 282317Z 29010KT 29/M02 A2968 RMK A01 T02871021  RH  013%=      5-min Rain = 0
KPD2 282318Z 30006KT 29/M01 A2968 RMK A01 T02901011  RH  014%=      5-min Rain = 0
KPD2 282319Z 27006KT 29/M01 A2968 RMK A01 T02941009  RH  014%=      5-min Rain = 0
KPD2 282320Z 29008G13KT 30/M01 A2968 RMK A01 T02971010  RH  014%=      5-min Rain = 0
KPD2 282321Z 31010G19KT 30/M02 A2968 RMK A01 T02981017  RH  013%=      5-min Rain = 0
KPD2 282322Z 29006G11KT 30/M02 A2968 RMK A01 T02991016  RH  013%=      5-min Rain = 0
KPD2 282323Z 27008KT 30/M02 A2968 RMK A01 T02991019  RH  013%=      5-min Rain = 0
KPD2 282324Z 27012G19KT 30/M02 A2968 RMK A01 T02991019  RH  013%=      5-min Rain = 0
KPD2 282325Z 26008G14KT 30/M02 A2968 RMK A01 T02981024  RH  012%=      5-min Rain = 0
KPD2 282326Z 25010KT 30/M03 A2968 RMK A01 T02971028  RH  012%=      5-min Rain = 0
KPD2 282327Z 26009G14KT 30/M03 A2968 RMK A01 T02971028  RH  012%=      5-min Rain = 0
KPD2 282328Z 28009KT 30/M02 A2968 RMK A01 T02961021  RH  013%=      5-min Rain = 0
KPD2 282329Z 28009KT 30/M02 A2968 RMK A01 T02961020  RH  013%=      5-min Rain = 0
KPD2 282330Z 27008KT 30/M02 A2968 RMK A01 T02971024  RH  012%=      5-min Rain = 0
KPD2 282331Z 30006KT 30/M02 A2968 RMK A01 T02971018  RH  013%=      5-min Rain = 0
KPD2 282332Z 30007G14KT 30/M01 A2968 RMK A01 T02971013  RH  013%=      5-min Rain = 0
KPD2 282333Z 28007G14KT 30/M02 A2968 RMK A01 T02981024  RH  012%=      5-min Rain = 0
KPD2 282334Z 27009KT 30/M02 A2968 RMK A01 T02961024  RH  012%=      5-min Rain = 0
KPD2 282335Z 30011G16KT 29/M03 A2968 RMK A01 T02931027  RH  012%=      5-min Rain = 0
KPD2 282336Z 28010G15KT 29/M03 A2968 RMK A01 T02911026  RH  012%=      5-min Rain = 0
KPD2 282337Z 29008KT 29/M03 A2968 RMK A01 T02891033  RH  012%=      5-min Rain = 0
KPD2 282338Z 28009KT 29/M03 A2968 RMK A01 T02881031  RH  012%=      5-min Rain = 0
KPD2 282339Z 27008KT 29/M04 A2968 RMK A01 T02871035  RH  012%=      5-min Rain = 0
KPD2 282340Z 26007KT 29/M03 A2968 RMK A01 T02881025  RH  013%=      5-min Rain = 0
KPD2 282341Z 28005KT 29/M02 A2968 RMK A01 T02891020  RH  013%=      5-min Rain = 0
KPD2 282342Z 28005KT 29/M03 A2968 RMK A01 T02891026  RH  013%=      5-min Rain = 0
KPD2 282343Z 30005G11KT 29/M02 A2968 RMK A01 T02891022  RH  013%=      5-min Rain = 0
KPD2 282344Z 30011KT 29/M03 A2968 RMK A01 T02881027  RH  013%=      5-min Rain = 0
KPD2 282345Z 28008G14KT 29/M03 A2968 RMK A01 T02871025  RH  013%=      5-min Rain = 0
KPD2 282346Z 27012G17KT 29/M03 A2968 RMK A01 T02861028  RH  013%=      5-min Rain = 0
KPD2 282347Z 28011G17KT 29/M04 A2968 RMK A01 T02861037  RH  012%=      5-min Rain = 0
KPD2 282348Z 27013G18KT 29/M03 A2968 RMK A01 T02861033  RH  012%=      5-min Rain = 0
KPD2 282349Z 28008KT 29/M03 A2968 RMK A01 T02861032  RH  012%=      5-min Rain = 0
KPD2 282350Z 26009KT 29/M03 A2968 RMK A01 T02861032  RH  012%=      5-min Rain = 0
KPD2 282351Z 28009KT 29/M03 A2968 RMK A01 T02871032  RH  012%=      5-min Rain = 0
KPD2 282352Z 28007G12KT 29/M03 A2968 RMK A01 T02881026  RH  013%=      5-min Rain = 0
KPD2 282353Z 26007G12KT 29/M02 A2968 RMK A01 T02891023  RH  013%=      5-min Rain = 0
KPD2 282354Z 27005KT 29/M03 A2968 RMK A01 T02891028  RH  013%=      5-min Rain = 0
KPD2 282355Z 27007KT 29/M03 A2968 RMK A01 T02891025  RH  013%=      5-min Rain = 0
KPD2 282356Z 26006KT 29/M02 A2968 RMK A01 T02901020  RH  013%=      5-min Rain = 0
KPD2 282357Z 27010G16KT 29/M02 A2968 RMK A01 T02921023  RH  013%=      5-min Rain = 0
KPD2 282358Z 28011G16KT 29/M03 A2968 RMK A01 T02921033  RH  012%=      5-min Rain = 0
KPD2 282359Z 27007G14KT 29/M03 A2968 RMK A01 T02921027  RH  012%=      5-min Rain = 0
KPD2 290000Z 30009G15KT 29/M03 A2968 RMK A01 T02931025  RH  012%=      5-min Rain = 0
KPD2 290001Z 29009G14KT 30/M03 A2968 RMK A01 T02951029  RH  012%=      5-min Rain = 0
KPD2 290002Z 27012G20KT 30/M04 A2968 RMK A01 T02951041  RH  011%=      5-min Rain = 0
KPD2 290003Z 31006G11KT 30/M03 A2968 RMK A01 T02951031  RH  012%=      5-min Rain = 0
KPD2 290004Z 28008G13KT 30/M03 A2968 RMK A01 T02951030  RH  012%=      5-min Rain = 0
KPD2 290005Z 29007G13KT 30/M04 A2968 RMK A01 T02961035  RH  011%=      5-min Rain = 0
KPD2 290006Z 27008KT 30/M04 A2968 RMK A01 T02961039  RH  011%=      5-min Rain = 0
KPD2 290007Z 27008G16KT 30/M04 A2968 RMK A01 T02961037  RH  011%=      5-min Rain = 0
KPD2 290008Z 28009KT 30/M04 A2968 RMK A01 T02951037  RH  011%=      5-min Rain = 0
KPD2 290009Z 28008KT 29/M05 A2968 RMK A01 T02931045  RH  011%=      5-min Rain = 0
KPD2 290010Z 28009KT 29/M05 A2968 RMK A01 T02911047  RH  011%=      5-min Rain = 0
KPD2 290011Z 27006KT 29/M04 A2968 RMK A01 T02901043  RH  011%=      5-min Rain = 0
KPD2 290012Z 27009G14KT 29/M04 A2968 RMK A01 T02901040  RH  011%=      5-min Rain = 0
KPD2 290013Z 25008G13KT 29/M04 A2968 RMK A01 T02901042  RH  011%=      5-min Rain = 0
KPD2 290014Z 25006G12KT 29/M04 A2968 RMK A01 T02891038  RH  012%=      5-min Rain = 0
KPD2 290015Z 25010G15KT 29/M04 A2968 RMK A01 T02881044  RH  011%=      5-min Rain = 0
KPD2 290016Z 24005KT 29/M04 A2968 RMK A01 T02881039  RH  012%=      5-min Rain = 0
KPD2 290017Z 29004KT 29/M04 A2968 RMK A01 T02871036  RH  012%=      5-min Rain = 0
KPD2 290018Z 27004KT 29/M04 A2968 RMK A01 T02871035  RH  012%=      5-min Rain = 0
KPD2 290019Z 30007KT 29/M03 A2968 RMK A01 T02861029  RH  013%=      5-min Rain = 0
KPD2 290020Z 30010G16KT 29/M03 A2968 RMK A01 T02861030  RH  012%=      5-min Rain = 0
KPD2 290021Z 29008KT 29/M04 A2968 RMK A01 T02861042  RH  012%=      5-min Rain = 0
KPD2 290022Z 30008KT 29/M04 A2968 RMK A01 T02851042  RH  012%=      5-min Rain = 0
KPD2 290023Z 29005G11KT 28/M04 A2969 RMK A01 T02841041  RH  012%=      5-min Rain = 0
KPD2 290024Z 29007KT 28/M04 A2968 RMK A01 T02841037  RH  012%=      5-min Rain = 0
KPD2 290025Z 29010G15KT 28/M04 A2969 RMK A01 T02841039  RH  012%=      5-min Rain = 0
KPD2 290026Z 28009G15KT 28/M05 A2969 RMK A01 T02821046  RH  011%=      5-min Rain = 0
KPD2 290027Z 30007KT 28/M04 A2969 RMK A01 T02811044  RH  012%=      5-min Rain = 0
KPD2 290028Z 29009G14KT 28/M04 A2969 RMK A01 T02811042  RH  012%=      5-min Rain = 0
KPD2 290029Z 27008KT 28/M04 A2969 RMK A01 T02801044  RH  012%=      5-min Rain = 0
KPD2 290030Z 29009G15KT 28/M04 A2969 RMK A01 T02801041  RH  012%=      5-min Rain = 0
KPD2 290031Z 27009G14KT 28/M05 A2969 RMK A01 T02801049  RH  011%=      5-min Rain = 0
KPD2 290032Z 29007KT 28/M05 A2969 RMK A01 T02801045  RH  012%=      5-min Rain = 0
KPD2 290033Z 30006KT 28/M05 A2969 RMK A01 T02791045  RH  012%=      5-min Rain = 0
KPD2 290034Z 29008KT 28/M04 A2969 RMK A01 T02801043  RH  012%=      5-min Rain = 0
KPD2 290035Z 28009KT 28/M05 A2969 RMK A01 T02791048  RH  011%=      5-min Rain = 0
KPD2 290036Z 28005KT 28/M05 A2969 RMK A01 T02791047  RH  011%=      5-min Rain = 0
KPD2 290037Z 30006KT 28/M04 A2969 RMK A01 T02801042  RH  012%=      5-min Rain = 0
KPD2 290038Z 28009KT 28/M05 A2969 RMK A01 T02801049  RH  011%=      5-min Rain = 0
KPD2 290039Z 28007KT 28/M05 A2969 RMK A01 T02801048  RH  011%=      5-min Rain = 0
KPD2 290040Z 30005KT 28/M04 A2969 RMK A01 T02801040  RH  012%=      5-min Rain = 0
KPD2 290041Z 29005KT 28/M04 A2969 RMK A01 T02791036  RH  012%=      5-min Rain = 0
KPD2 290042Z 30003KT 28/M03 A2969 RMK A01 T02791032  RH  013%=      5-min Rain = 0
KPD2 290043Z 30004KT 28/M03 A2969 RMK A01 T02801026  RH  013%=      5-min Rain = 0
KPD2 290044Z 30005KT 28/M03 A2969 RMK A01 T02801027  RH  013%=      5-min Rain = 0
KPD2 290045Z 27005KT 28/M03 A2969 RMK A01 T02791025  RH  014%=      5-min Rain = 0
KPD2 290046Z 29004KT 28/M03 A2969 RMK A01 T02791025  RH  014%=      5-min Rain = 0
KPD2 290047Z 31005KT 28/M02 A2969 RMK A01 T02791023  RH  014%=      5-min Rain = 0
KPD2 290048Z 32006KT 28/M02 A2969 RMK A01 T02781021  RH  014%=      5-min Rain = 0
KPD2 290049Z 32005KT 28/M01 A2969 RMK A01 T02781011  RH  015%=      5-min Rain = 0
KPD2 290050Z 31005KT 28/M01 A2969 RMK A01 T02791006  RH  016%=      5-min Rain = 0
KPD2 290051Z 31005KT 28/M01 A2969 RMK A01 T02791007  RH  015%=      5-min Rain = 0
KPD2 290052Z 31006KT 28/M01 A2969 RMK A01 T02771012  RH  015%=      5-min Rain = 0
KPD2 290053Z 30008KT 28/M01 A2969 RMK A01 T02751014  RH  015%=      5-min Rain = 0
KPD2 290054Z 30005KT 27/M02 A297 RMK A01 T02731015  RH  015%=      5-min Rain = 0
KPD2 290055Z 32004KT 27/M01 A297 RMK A01 T02721011  RH  016%=      5-min Rain = 0
KPD2 290056Z 31005KT 27/M01 A297 RMK A01 T02711012  RH  016%=      5-min Rain = 0
KPD2 290057Z 31007KT 27/M01 A297 RMK A01 T02711012  RH  016%=      5-min Rain = 0
KPD2 290058Z 29005KT 27/M01 A297 RMK A01 T02711012  RH  016%=      5-min Rain = 0
KPD2 290059Z 31007KT 27/M02 A297 RMK A01 T02711016  RH  015%=      5-min Rain = 0
KPD2 290100Z 31005KT 27/M01 A297 RMK A01 T02711012  RH  016%=      5-min Rain = 0
KPD2 290101Z 30005KT 27/M01 A297 RMK A01 T02721010  RH  016%=      5-min Rain = 0
KPD2 290102Z 31005KT 27/M01 A297 RMK A01 T02721009  RH  016%=      5-min Rain = 0
KPD2 290103Z 30005KT 27/M01 A297 RMK A01 T02721011  RH  016%=      5-min Rain = 0
KPD2 290104Z 31003KT 27/M01 A297 RMK A01 T02721012  RH  016%=      5-min Rain = 0
KPD2 290105Z 29006KT 27/M01 A297 RMK A01 T02731013  RH  015%=      5-min Rain = 0
KPD2 290106Z 30005KT 27/M02 A297 RMK A01 T02731019  RH  015%=      5-min Rain = 0
KPD2 290107Z 31004KT 27/M02 A297 RMK A01 T02731015  RH  015%=      5-min Rain = 0
KPD2 290108Z 31003KT 27/M01 A297 RMK A01 T02731014  RH  015%=      5-min Rain = 0
KPD2 290109Z 31005KT 27/M01 A297 RMK A01 T02731008  RH  016%=      5-min Rain = 0
KPD2 290110Z 30005KT 27/M01 A297 RMK A01 T02731008  RH  016%=      5-min Rain = 0
KPD2 290111Z 32003KT 27/M02 A297 RMK A01 T02721015  RH  015%=      5-min Rain = 0
KPD2 290112Z 32004KT 27/M01 A297 RMK A01 T02711009  RH  016%=      5-min Rain = 0
KPD2 290113Z 29004KT 27/M01 A297 RMK A01 T02711014  RH  015%=      5-min Rain = 0
KPD2 290114Z 31005KT 27/M02 A297 RMK A01 T02711016  RH  015%=      5-min Rain = 0
KPD2 290115Z 31003KT 27/M02 A297 RMK A01 T02701020  RH  015%=      5-min Rain = 0
KPD2 290116Z 30003KT 27/M01 A297 RMK A01 T02701013  RH  016%=      5-min Rain = 0
KPD2 290117Z 30004KT 27/M01 A297 RMK A01 T02691005  RH  017%=      5-min Rain = 0
KPD2 290118Z 29005KT 27/M01 A2971 RMK A01 T02681008  RH  016%=      5-min Rain = 0
KPD2 290119Z 31003KT 27/M01 A2971 RMK A01 T02671014  RH  016%=      5-min Rain = 0
KPD2 290120Z 31003KT 27/M00 A2971 RMK A01 T02671004  RH  017%=      5-min Rain = 0
KPD2 290121Z 32003KT 27/00 A2971 RMK A01 T02650000  RH  018%=      5-min Rain = 0
KPD2 290122Z 31003KT 26/M00 A2971 RMK A01 T02641004  RH  017%=      5-min Rain = 0
KPD2 290123Z 33003KT 26/M01 A2971 RMK A01 T02631006  RH  017%=      5-min Rain = 0
KPD2 290124Z 31003KT 26/00 A2971 RMK A01 T02610001  RH  018%=      5-min Rain = 0
KPD2 290125Z 31004KT 26/M00 A2971 RMK A01 T02591003  RH  018%=      5-min Rain = 0
KPD2 290126Z 31003KT 26/M01 A2971 RMK A01 T02571006  RH  018%=      5-min Rain = 0
KPD2 290127Z 32003KT 26/M01 A2971 RMK A01 T02571008  RH  017%=      5-min Rain = 0
KPD2 290128Z 31003KT 26/M01 A2971 RMK A01 T02561007  RH  018%=      5-min Rain = 0
KPD2 290129Z 31003KT 26/M01 A2971 RMK A01 T02551007  RH  018%=      5-min Rain = 0
KPD2 290130Z 31005KT 26/M01 A2971 RMK A01 T02551012  RH  017%=      5-min Rain = 0
KPD2 290131Z 29005KT 26/M02 A2971 RMK A01 T02551017  RH  017%=      5-min Rain = 0
KPD2 290132Z 31005KT 26/M02 A2971 RMK A01 T02551016  RH  017%=      5-min Rain = 0
KPD2 290133Z 30003KT 26/M02 A2971 RMK A01 T02551016  RH  017%=      5-min Rain = 0
KPD2 290134Z 29004KT 26/M01 A2971 RMK A01 T02551014  RH  017%=      5-min Rain = 0
KPD2 290135Z 30003KT 26/M01 A2971 RMK A01 T02551014  RH  017%=      5-min Rain = 0
KPD2 290136Z 30003KT 25/M01 A2971 RMK A01 T02541014  RH  017%=      5-min Rain = 0
KPD2 290137Z 30004KT 25/M01 A2971 RMK A01 T02531011  RH  018%=      5-min Rain = 0
KPD2 290138Z 31003KT 25/M02 A2971 RMK A01 T02521016  RH  017%=      5-min Rain = 0
KPD2 290139Z 30002KT 25/M01 A2971 RMK A01 T02521014  RH  017%=      5-min Rain = 0
KPD2 290140Z 30003KT 25/M01 A2971 RMK A01 T02511012  RH  018%=      5-min Rain = 0
KPD2 290141Z 31004KT 25/M01 A2972 RMK A01 T02501013  RH  018%=      5-min Rain = 0
KPD2 290142Z 33003KT 25/M01 A2971 RMK A01 T02491011  RH  018%=      5-min Rain = 0
KPD2 290143Z 33002KT 25/M01 A2971 RMK A01 T02471011  RH  018%=      5-min Rain = 0
KPD2 290144Z 34003KT 25/M01 A2971 RMK A01 T02461006  RH  019%=      5-min Rain = 0
KPD2 290145Z 33003KT 25/M00 A2972 RMK A01 T02451004  RH  019%=      5-min Rain = 0
KPD2 290146Z 33003KT 24/00 A2972 RMK A01 T02430001  RH  020%=      5-min Rain = 0
KPD2 290147Z 33004KT 24/00 A2972 RMK A01 T02420003  RH  021%=      5-min Rain = 0
KPD2 290148Z 31003KT 24/M00 A2972 RMK A01 T02411004  RH  020%=      5-min Rain = 0
KPD2 290149Z 32004KT 24/M00 A2972 RMK A01 T02401004  RH  020%=      5-min Rain = 0
KPD2 290150Z 32004KT 24/M01 A2972 RMK A01 T02391009  RH  019%=      5-min Rain = 0
KPD2 290151Z 31003KT 24/M00 A2972 RMK A01 T02391002  RH  020%=      5-min Rain = 0
KPD2 290152Z 30004KT 24/M00 A2972 RMK A01 T02381004  RH  020%=      5-min Rain = 0
KPD2 290153Z 30004KT 24/M01 A2972 RMK A01 T02381010  RH  019%=      5-min Rain = 0
KPD2 290154Z 31003KT 24/M01 A2972 RMK A01 T02381009  RH  019%=      5-min Rain = 0
KPD2 290155Z 30004KT 24/M01 A2972 RMK A01 T02381007  RH  020%=      5-min Rain = 0
KPD2 290156Z 30004KT 24/M01 A2972 RMK A01 T02381010  RH  019%=      5-min Rain = 0
KPD2 290157Z 29003KT 24/M01 A2972 RMK A01 T02391009  RH  019%=      5-min Rain = 0
KPD2 290158Z 29003KT 24/M01 A2972 RMK A01 T02391005  RH  020%=      5-min Rain = 0
KPD2 290159Z 30003KT 24/M01 A2972 RMK A01 T02381005  RH  020%=      5-min Rain = 0
KPD2 290200Z 31002KT 24/M01 A2972 RMK A01 T02371006  RH  020%=      5-min Rain = 0
KPD2 290201Z 32003KT 24/M01 A2972 RMK A01 T02361008  RH  020%=      5-min Rain = 0
KPD2 290202Z 31004KT 24/M01 A2972 RMK A01 T02351005  RH  020%=      5-min Rain = 0
KPD2 290203Z 32003KT 23/M01 A2972 RMK A01 T02341006  RH  020%=      5-min Rain = 0
KPD2 290204Z 33003KT 23/M01 A2972 RMK A01 T02331006  RH  021%=      5-min Rain = 0
KPD2 290205Z 33004KT 23/M01 A2972 RMK A01 T02321006  RH  021%=      5-min Rain = 0
KPD2 290206Z 33004KT 23/M01 A2972 RMK A01 T02311006  RH  021%=      5-min Rain = 0
KPD2 290207Z 33005KT 23/M01 A2972 RMK A01 T02301005  RH  021%=      5-min Rain = 0
KPD2 290208Z 32005KT 23/M00 A2973 RMK A01 T02291003  RH  021%=      5-min Rain = 0
KPD2 290209Z 32004KT 23/M00 A2973 RMK A01 T02291003  RH  022%=      5-min Rain = 0
KPD2 290210Z 31004KT 23/M00 A2973 RMK A01 T02281002  RH  022%=      5-min Rain = 0
KPD2 290211Z 33005KT 23/M00 A2973 RMK A01 T02281002  RH  022%=      5-min Rain = 0
KPD2 290212Z 33005KT 23/M00 A2973 RMK A01 T02271001  RH  022%=      5-min Rain = 0
KPD2 290213Z 32005KT 23/00 A2973 RMK A01 T02270000  RH  022%=      5-min Rain = 0
KPD2 290214Z 32005KT 23/M00 A2973 RMK A01 T02271002  RH  022%=      5-min Rain = 0
KPD2 290215Z 32005KT 23/M00 A2973 RMK A01 T02271001  RH  022%=      5-min Rain = 0
KPD2 290216Z 32004KT 23/M00 A2973 RMK A01 T02271001  RH  022%=      5-min Rain = 0
KPD2 290217Z 33004KT 23/M00 A2973 RMK A01 T02271003  RH  022%=      5-min Rain = 0
KPD2 290218Z 34004KT 23/M00 A2973 RMK A01 T02281002  RH  022%=      5-min Rain = 0
KPD2 290219Z 33004KT 23/00 A2973 RMK A01 T02270002  RH  022%=      5-min Rain = 0
KPD2 290220Z 32004KT 23/00 A2973 RMK A01 T02270002  RH  022%=      5-min Rain = 0
KPD2 290221Z 32006KT 23/00 A2973 RMK A01 T02260000  RH  022%=      5-min Rain = 0
KPD2 290222Z 33006KT 23/M00 A2973 RMK A01 T02261002  RH  022%=      5-min Rain = 0
KPD2 290223Z 32006KT 23/M00 A2973 RMK A01 T02261001  RH  022%=      5-min Rain = 0
KPD2 290224Z 33006KT 23/00 A2973 RMK A01 T022700-0  RH  022%=      5-min Rain = 0
KPD2 290225Z 33006KT 23/M00 A2973 RMK A01 T02271001  RH  022%=      5-min Rain = 0
KPD2 290226Z 34006KT 23/M00 A2973 RMK A01 T02271001  RH  022%=      5-min Rain = 0
KPD2 290227Z 34006KT 23/00 A2973 RMK A01 T02280000  RH  022%=      5-min Rain = 0
KPD2 290228Z 35006KT 23/M00 A2973 RMK A01 T02281001  RH  022%=      5-min Rain = 0
KPD2 290229Z 34006KT 23/00 A2973 RMK A01 T022800-0  RH  022%=      5-min Rain = 0
KPD2 290230Z 34006KT 23/M00 A2973 RMK A01 T02291001  RH  022%=      5-min Rain = 0
KPD2 290231Z 33005KT 23/M00 A2973 RMK A01 T02291002  RH  022%=      5-min Rain = 0
KPD2 290232Z 34006KT 23/M00 A2973 RMK A01 T02291002  RH  022%=      5-min Rain = 0
KPD2 290233Z 34005KT 23/M00 A2973 RMK A01 T02291001  RH  022%=      5-min Rain = 0
KPD2 290234Z 35005KT 23/M00 A2973 RMK A01 T02281001  RH  022%=      5-min Rain = 0
KPD2 290235Z 34006KT 23/M00 A2973 RMK A01 T02271003  RH  022%=      5-min Rain = 0
KPD2 290236Z 34004KT 23/M01 A2973 RMK A01 T02271005  RH  021%=      5-min Rain = 0
KPD2 290237Z 34005KT 23/M01 A2973 RMK A01 T02271006  RH  021%=      5-min Rain = 0
KPD2 290238Z 33005KT 23/M00 A2973 RMK A01 T02271004  RH  022%=      5-min Rain = 0
KPD2 290239Z 34004KT 23/M00 A2973 RMK A01 T02261004  RH  022%=      5-min Rain = 0
KPD2 290240Z 33005KT 23/M00 A2973 RMK A01 T02251002  RH  022%=      5-min Rain = 0
KPD2 290241Z 33005KT 22/M00 A2973 RMK A01 T02241004  RH  022%=      5-min Rain = 0
KPD2 290242Z 33005KT 22/M01 A2973 RMK A01 T02231006  RH  022%=      5-min Rain = 0
KPD2 290243Z 33005KT 22/M01 A2973 RMK A01 T02221009  RH  021%=      5-min Rain = 0
KPD2 290244Z 33005KT 22/M00 A2973 RMK A01 T02221004  RH  022%=      5-min Rain = 0
KPD2 290245Z 34005KT 22/M00 A2973 RMK A01 T02211004  RH  022%=      5-min Rain = 0
KPD2 290246Z 33005KT 22/M00 A2973 RMK A01 T02201004  RH  022%=      5-min Rain = 0
KPD2 290247Z 33005KT 22/M01 A2973 RMK A01 T02191005  RH  022%=      5-min Rain = 0
KPD2 290248Z 33004KT 22/M01 A2973 RMK A01 T02191005  RH  022%=      5-min Rain = 0
KPD2 290249Z 34004KT 22/M00 A2973 RMK A01 T02181002  RH  023%=      5-min Rain = 0
KPD2 290250Z 32004KT 22/00 A2974 RMK A01 T021700-0  RH  024%=      5-min Rain = 0
KPD2 290251Z 33004KT 22/00 A2974 RMK A01 T02160001  RH  024%=      5-min Rain = 0
KPD2 290252Z 33004KT 22/00 A2974 RMK A01 T02150001  RH  024%=      5-min Rain = 0
KPD2 290253Z 34004KT 21/M00 A2974 RMK A01 T02141001  RH  024%=      5-min Rain = 0
KPD2 290254Z 33004KT 21/01 A2974 RMK A01 T02120007  RH  026%=      5-min Rain = 0
KPD2 290255Z 34004KT 21/01 A2974 RMK A01 T02100008  RH  026%=      5-min Rain = 0
KPD2 290256Z 34004KT 21/01 A2974 RMK A01 T02090008  RH  026%=      5-min Rain = 0
KPD2 290257Z 34003KT 21/01 A2974 RMK A01 T02070010  RH  027%=      5-min Rain = 0
KPD2 290258Z 34002KT 21/01 A2974 RMK A01 T02060012  RH  028%=      5-min Rain = 0
KPD2 290259Z 33002KT 20/01 A2974 RMK A01 T02040011  RH  028%=      5-min Rain = 0
KPD2 290300Z 34003KT 20/01 A2974 RMK A01 T02020012  RH  028%=      5-min Rain = 0
KPD2 290301Z 31002KT 20/01 A2974 RMK A01 T02010013  RH  029%=      5-min Rain = 0
KPD2 290302Z 28002KT 20/01 A2974 RMK A01 T01990014  RH  029%=      5-min Rain = 0
KPD2 290303Z 31003KT 20/02 A2974 RMK A01 T01980015  RH  029%=      5-min Rain = 0
KPD2 290304Z 34004KT 20/01 A2974 RMK A01 T01980014  RH  029%=      5-min Rain = 0
KPD2 290305Z 35003KT 20/02 A2974 RMK A01 T01970015  RH  030%=      5-min Rain = 0
KPD2 290306Z 34004KT 20/02 A2974 RMK A01 T01960016  RH  030%=      5-min Rain = 0
KPD2 290307Z 34004KT 20/02 A2974 RMK A01 T01950016  RH  030%=      5-min Rain = 0
KPD2 290308Z 34004KT 19/01 A2974 RMK A01 T01940012  RH  030%=      5-min Rain = 0
KPD2 290309Z 35005KT 19/02 A2974 RMK A01 T01940016  RH  030%=      5-min Rain = 0
KPD2 290310Z 35005KT 19/02 A2974 RMK A01 T01930015  RH  030%=      5-min Rain = 0
KPD2 290311Z 34004KT 19/02 A2974 RMK A01 T01930015  RH  030%=      5-min Rain = 0
KPD2 290312Z 34004KT 19/02 A2974 RMK A01 T01920016  RH  031%=      5-min Rain = 0
KPD2 290313Z 34004KT 19/02 A2974 RMK A01 T01910016  RH  031%=      5-min Rain = 0
KPD2 290314Z 34003KT 19/01 A2974 RMK A01 T01900013  RH  031%=      5-min Rain = 0
KPD2 290315Z 34003KT 19/01 A2974 RMK A01 T01900014  RH  031%=      5-min Rain = 0
KPD2 290316Z 34003KT 19/01 A2974 RMK A01 T01890012  RH  030%=      5-min Rain = 0
KPD2 290317Z 31002KT 19/01 A2974 RMK A01 T01890014  RH  031%=      5-min Rain = 0
KPD2 290318Z 31003KT 19/02 A2975 RMK A01 T01890015  RH  031%=      5-min Rain = 0
KPD2 290319Z 30002KT 19/01 A2975 RMK A01 T01880014  RH  031%=      5-min Rain = 0
KPD2 290320Z 32003KT 19/02 A2975 RMK A01 T01880016  RH  032%=      5-min Rain = 0
KPD2 290321Z 32003KT 19/02 A2975 RMK A01 T01870016  RH  032%=      5-min Rain = 0
KPD2 290322Z 32002KT 19/02 A2975 RMK A01 T01870017  RH  032%=      5-min Rain = 0
KPD2 290323Z 29002KT 19/02 A2975 RMK A01 T01860017  RH  032%=      5-min Rain = 0
KPD2 290324Z 32002KT 19/02 A2975 RMK A01 T01850020  RH  033%=      5-min Rain = 0
KPD2 290325Z 31002KT 19/02 A2975 RMK A01 T01850018  RH  033%=      5-min Rain = 0
KPD2 290326Z 28002KT 18/02 A2975 RMK A01 T01840015  RH  032%=      5-min Rain = 0
KPD2 290327Z 26002KT 18/02 A2975 RMK A01 T01840016  RH  032%=      5-min Rain = 0
KPD2 290328Z 26003KT 18/02 A2975 RMK A01 T01830018  RH  033%=      5-min Rain = 0
KPD2 290329Z 28002KT 18/02 A2975 RMK A01 T01830017  RH  033%=      5-min Rain = 0
KPD2 290330Z 27002KT 18/02 A2975 RMK A01 T01820018  RH  033%=      5-min Rain = 0
KPD2 290331Z 25003KT 18/02 A2975 RMK A01 T01820018  RH  033%=      5-min Rain = 0
KPD2 290332Z 26002KT 18/02 A2975 RMK A01 T01810018  RH  033%=      5-min Rain = 0
KPD2 290333Z 26002KT 18/02 A2975 RMK A01 T01810017  RH  033%=      5-min Rain = 0
KPD2 290334Z 27002KT 18/02 A2975 RMK A01 T01810017  RH  033%=      5-min Rain = 0
KPD2 290335Z 26002KT 18/02 A2975 RMK A01 T01800016  RH  033%=      5-min Rain = 0
KPD2 290336Z 25003KT 18/02 A2975 RMK A01 T01800017  RH  034%=      5-min Rain = 0
KPD2 290337Z 25003KT 18/02 A2975 RMK A01 T01790018  RH  034%=      5-min Rain = 0
KPD2 290338Z 24002KT 18/02 A2975 RMK A01 T01790016  RH  034%=      5-min Rain = 0
KPD2 290339Z 24002KT 18/02 A2975 RMK A01 T01780015  RH  033%=      5-min Rain = 0
KPD2 290340Z 25002KT 18/01 A2975 RMK A01 T01780014  RH  033%=      5-min Rain = 0
KPD2 290341Z 24001KT 18/02 A2975 RMK A01 T01780015  RH  033%=      5-min Rain = 0
KPD2 290342Z 29000KT 18/02 A2975 RMK A01 T01770015  RH  034%=      5-min Rain = 0
KPD2 290343Z 28000KT 18/01 A2975 RMK A01 T01770012  RH  033%=      5-min Rain = 0
KPD2 290344Z 29001KT 18/01 A2975 RMK A01 T01770011  RH  033%=      5-min Rain = 0
KPD2 290345Z 27001KT 18/01 A2975 RMK A01 T01770009  RH  032%=      5-min Rain = 0
KPD2 290346Z 28001KT 18/01 A2975 RMK A01 T01770007  RH  032%=      5-min Rain = 0
KPD2 290347Z 27001KT 18/01 A2975 RMK A01 T01770008  RH  032%=      5-min Rain = 0
KPD2 290348Z 28000KT 18/01 A2976 RMK A01 T01780006  RH  031%=      5-min Rain = 0
KPD2 290349Z 31001KT 18/01 A2976 RMK A01 T01780006  RH  031%=      5-min Rain = 0
KPD2 290350Z 33001KT 18/01 A2976 RMK A01 T01780005  RH  031%=      5-min Rain = 0
KPD2 290351Z 33002KT 18/01 A2976 RMK A01 T01780006  RH  031%=      5-min Rain = 0
KPD2 290352Z 31002KT 18/01 A2976 RMK A01 T01780007  RH  031%=      5-min Rain = 0
KPD2 290353Z 31002KT 18/01 A2976 RMK A01 T01780007  RH  032%=      5-min Rain = 0
KPD2 290354Z 32003KT 18/01 A2976 RMK A01 T01780009  RH  032%=      5-min Rain = 0
KPD2 290355Z 31003KT 18/01 A2976 RMK A01 T01780010  RH  032%=      5-min Rain = 0
KPD2 290356Z 32002KT 18/01 A2976 RMK A01 T01780011  RH  032%=      5-min Rain = 0
KPD2 290357Z 31003KT 18/01 A2976 RMK A01 T01780011  RH  032%=      5-min Rain = 0
KPD2 290358Z 30003KT 18/01 A2976 RMK A01 T01780012  RH  033%=      5-min Rain = 0
KPD2 290359Z 30003KT 18/01 A2976 RMK A01 T01780014  RH  033%=      5-min Rain = 0
KPD2 290400Z 32003KT 18/02 A2976 RMK A01 T01770015  RH  034%=      5-min Rain = 0
KPD2 290401Z 32003KT 18/02 A2976 RMK A01 T01750015  RH  034%=      5-min Rain = 0
KPD2 290402Z 32003KT 17/02 A2976 RMK A01 T01740015  RH  034%=      5-min Rain = 0
KPD2 290403Z 31003KT 17/01 A2976 RMK A01 T01740014  RH  034%=      5-min Rain = 0
KPD2 290404Z 31003KT 17/01 A2976 RMK A01 T01730013  RH  034%=      5-min Rain = 0
KPD2 290405Z 30003KT 17/01 A2976 RMK A01 T01720014  RH  034%=      5-min Rain = 0
KPD2 290406Z 30003KT 17/01 A2976 RMK A01 T01720014  RH  035%=      5-min Rain = 0
KPD2 290407Z 30003KT 17/02 A2976 RMK A01 T01710016  RH  035%=      5-min Rain = 0
KPD2 290408Z 30003KT 17/02 A2976 RMK A01 T01700015  RH  035%=      5-min Rain = 0
KPD2 290409Z 30003KT 17/02 A2976 RMK A01 T01700015  RH  035%=      5-min Rain = 0
KPD2 290410Z 29003KT 17/01 A2976 RMK A01 T01700014  RH  035%=      5-min Rain = 0
KPD2 290411Z 29003KT 17/02 A2976 RMK A01 T01710015  RH  035%=      5-min Rain = 0
KPD2 290412Z 30003KT 17/02 A2976 RMK A01 T01710017  RH  035%=      5-min Rain = 0
KPD2 290413Z 31003KT 17/02 A2976 RMK A01 T01710020  RH  036%=      5-min Rain = 0
KPD2 290414Z 31003KT 17/02 A2976 RMK A01 T01700018  RH  036%=      5-min Rain = 0
KPD2 290415Z 32002KT 17/02 A2976 RMK A01 T01690017  RH  036%=      5-min Rain = 0
KPD2 290416Z 32003KT 17/02 A2976 RMK A01 T01690018  RH  036%=      5-min Rain = 0
KPD2 290417Z 32003KT 17/02 A2976 RMK A01 T01680018  RH  036%=      5-min Rain = 0
KPD2 290418Z 31002KT 17/02 A2976 RMK A01 T01670018  RH  037%=      5-min Rain = 0
KPD2 290419Z 31002KT 17/02 A2976 RMK A01 T01670018  RH  037%=      5-min Rain = 0
KPD2 290420Z 31002KT 17/02 A2976 RMK A01 T01670020  RH  037%=      5-min Rain = 0
KPD2 290421Z 31002KT 17/02 A2976 RMK A01 T01670020  RH  037%=      5-min Rain = 0
KPD2 290422Z 31002KT 17/02 A2976 RMK A01 T01660021  RH  037%=      5-min Rain = 0
KPD2 290423Z 31002KT 17/02 A2976 RMK A01 T01660021  RH  038%=      5-min Rain = 0
KPD2 290424Z 31003KT 17/02 A2976 RMK A01 T01650021  RH  038%=      5-min Rain = 0
KPD2 290425Z 31002KT 17/02 A2977 RMK A01 T01650021  RH  038%=      5-min Rain = 0
KPD2 290426Z 30002KT 17/02 A2977 RMK A01 T01650021  RH  038%=      5-min Rain = 0
KPD2 290427Z 31002KT 17/02 A2977 RMK A01 T01650022  RH  038%=      5-min Rain = 0
KPD2 290428Z 31002KT 16/02 A2977 RMK A01 T01640022  RH  038%=      5-min Rain = 0
KPD2 290429Z 32002KT 16/02 A2977 RMK A01 T01640023  RH  039%=      5-min Rain = 0
KPD2 290430Z 31002KT 16/02 A2977 RMK A01 T01640023  RH  039%=      5-min Rain = 0
KPD2 290431Z 31002KT 16/02 A2977 RMK A01 T01630022  RH  039%=      5-min Rain = 0
KPD2 290432Z 30002KT 16/02 A2977 RMK A01 T01620023  RH  039%=      5-min Rain = 0
KPD2 290433Z 31002KT 16/03 A2977 RMK A01 T01620025  RH  040%=      5-min Rain = 0
KPD2 290434Z 30002KT 16/03 A2977 RMK A01 T01610027  RH  040%=      5-min Rain = 0
KPD2 290435Z 30002KT 16/02 A2977 RMK A01 T01610024  RH  040%=      5-min Rain = 0
KPD2 290436Z 30002KT 16/02 A2977 RMK A01 T01610024  RH  040%=      5-min Rain = 0
KPD2 290437Z 32002KT 16/03 A2977 RMK A01 T01600027  RH  041%=      5-min Rain = 0
KPD2 290438Z 32002KT 16/03 A2977 RMK A01 T01600028  RH  041%=      5-min Rain = 0
KPD2 290439Z 33002KT 16/03 A2977 RMK A01 T01590026  RH  041%=      5-min Rain = 0
KPD2 290440Z 32001KT 16/03 A2977 RMK A01 T01580025  RH  041%=      5-min Rain = 0
KPD2 290441Z 32002KT 16/02 A2977 RMK A01 T01580024  RH  041%=      5-min Rain = 0
KPD2 290442Z 32002KT 16/03 A2977 RMK A01 T01580025  RH  041%=      5-min Rain = 0
KPD2 290443Z 34002KT 16/03 A2977 RMK A01 T01580026  RH  041%=      5-min Rain = 0
KPD2 290444Z 34001KT 16/03 A2977 RMK A01 T01570030  RH  042%=      5-min Rain = 0
KPD2 290445Z 31002KT 16/03 A2977 RMK A01 T01570026  RH  042%=      5-min Rain = 0
KPD2 290446Z 32003KT 16/03 A2977 RMK A01 T01560028  RH  042%=      5-min Rain = 0
KPD2 290447Z 32002KT 16/03 A2977 RMK A01 T01560027  RH  042%=      5-min Rain = 0
KPD2 290448Z 31001KT 16/03 A2977 RMK A01 T01560030  RH  043%=      5-min Rain = 0
KPD2 290449Z 31002KT 16/03 A2977 RMK A01 T01560029  RH  042%=      5-min Rain = 0
KPD2 290450Z 32001KT 16/03 A2977 RMK A01 T01550028  RH  042%=      5-min Rain = 0
KPD2 290451Z 32002KT 16/03 A2977 RMK A01 T01550028  RH  042%=      5-min Rain = 0
KPD2 290452Z 34001KT 16/03 A2977 RMK A01 T01550029  RH  043%=      5-min Rain = 0
KPD2 290453Z 32001KT 16/03 A2977 RMK A01 T01550031  RH  043%=      5-min Rain = 0
KPD2 290454Z 32001KT 16/03 A2977 RMK A01 T01550031  RH  043%=      5-min Rain = 0
KPD2 290455Z 31002KT 15/03 A2977 RMK A01 T01540030  RH  043%=      5-min Rain = 0
KPD2 290456Z 31003KT 15/03 A2977 RMK A01 T01540030  RH  043%=      5-min Rain = 0
KPD2 290457Z 31002KT 15/03 A2977 RMK A01 T01530030  RH  044%=      5-min Rain = 0
KPD2 290458Z 33002KT 15/03 A2977 RMK A01 T01520030  RH  044%=      5-min Rain = 0
KPD2 290459Z 32003KT 15/03 A2977 RMK A01 T01510030  RH  044%=      5-min Rain = 0

Page generated in 0.0813 seconds.